<?xml version="1.0" encoding="UTF-8" standalone="no" ?>
<gpx xmlns="http://www.topografix.com/GPX/1/1" xmlns:xsi="http://www.w3.org/2001/XMLSchema-instance" xsi:schemaLocation="http://www.topografix.com/GPX/1/1 http://www.topografix.com/GPX/1/1/gpx.xsd" version="1.1" creator="VisuGPX - https://www.visugpx.com">
  <metadata>
    <name>20120915-Hougerville, VTT entre Hougerville et Fécamp</name>
    <desc><![CDATA[Départ en VTT pour Fécamp par les chemins et petites routes puis visite de la ville]]></desc>
  </metadata>
  <wpt lat="49.75698" lon="0.45216">
    <ele>112.2</ele>
    <name><![CDATA[15-0928]]></name>
    <desc><![CDATA[15-0928]]></desc>
    <cmt><![CDATA[15-0928]]></cmt>
  </wpt>
  <wpt lat="49.73947" lon="0.42611">
    <ele>106.882353</ele>
    <name><![CDATA[15-0949]]></name>
    <desc><![CDATA[15-0949]]></desc>
    <cmt><![CDATA[15-0949]]></cmt>
  </wpt>
  <wpt lat="49.73947" lon="0.42607">
    <ele>106</ele>
    <name><![CDATA[15-0950]]></name>
    <desc><![CDATA[15-0950]]></desc>
    <cmt><![CDATA[15-0950]]></cmt>
  </wpt>
  <wpt lat="49.73527" lon="0.41699">
    <ele>73.454545</ele>
    <name><![CDATA[15-0955]]></name>
    <desc><![CDATA[15-0955]]></desc>
    <cmt><![CDATA[15-0955]]></cmt>
  </wpt>
  <wpt lat="49.73511" lon="0.41308">
    <ele>25.68</ele>
    <name><![CDATA[15-1001]]></name>
    <desc><![CDATA[15-1001]]></desc>
    <cmt><![CDATA[15-1001]]></cmt>
  </wpt>
  <wpt lat="49.73444" lon="0.40217">
    <ele>63.109091</ele>
    <name><![CDATA[15-1013]]></name>
    <desc><![CDATA[15-1013]]></desc>
    <cmt><![CDATA[15-1013]]></cmt>
  </wpt>
  <wpt lat="49.75505" lon="0.38027">
    <ele>13.997</ele>
    <name><![CDATA[15-1044]]></name>
    <desc><![CDATA[15-1044]]></desc>
    <cmt><![CDATA[15-1044]]></cmt>
  </wpt>
  <wpt lat="49.7552" lon="0.37995">
    <ele>5.275</ele>
    <name><![CDATA[15-1045]]></name>
    <desc><![CDATA[15-1045]]></desc>
    <cmt><![CDATA[15-1045]]></cmt>
  </wpt>
  <wpt lat="49.75704" lon="0.37608">
    <ele>16</ele>
    <name><![CDATA[15-1049]]></name>
    <desc><![CDATA[15-1049]]></desc>
    <cmt><![CDATA[15-1049]]></cmt>
  </wpt>
  <wpt lat="49.75861" lon="0.36803">
    <ele>9</ele>
    <name><![CDATA[15-1053]]></name>
    <desc><![CDATA[15-1053]]></desc>
    <cmt><![CDATA[15-1053]]></cmt>
  </wpt>
  <wpt lat="49.75848" lon="0.36794">
    <ele>9.253</ele>
    <name><![CDATA[15-1054]]></name>
    <desc><![CDATA[15-1054]]></desc>
    <cmt><![CDATA[15-1054]]></cmt>
  </wpt>
  <wpt lat="49.759" lon="0.36044">
    <ele>-2.724</ele>
    <name><![CDATA[15-1058]]></name>
    <desc><![CDATA[15-1058]]></desc>
    <cmt><![CDATA[15-1058]]></cmt>
  </wpt>
  <wpt lat="49.75903" lon="0.36041">
    <ele>-4.712</ele>
    <name><![CDATA[15-1059]]></name>
    <desc><![CDATA[15-1059]]></desc>
    <cmt><![CDATA[15-1059]]></cmt>
  </wpt>
  <trk>
    <name><![CDATA[20120915-0926-1149-E]]></name>
    <trkseg>
      <trkpt lat="49.75669" lon="0.45094">
        <ele>112</ele>
        <time>2012-09-15T09:26:19Z</time>
      </trkpt>
      <trkpt lat="49.75667" lon="0.45101">
        <ele>112</ele>
        <time>2012-09-15T09:26:23Z</time>
      </trkpt>
      <trkpt lat="49.75674" lon="0.45125">
        <ele>112</ele>
        <time>2012-09-15T09:26:37Z</time>
      </trkpt>
      <trkpt lat="49.75673" lon="0.45136">
        <ele>111</ele>
        <time>2012-09-15T09:26:42Z</time>
      </trkpt>
      <trkpt lat="49.75681" lon="0.45176">
        <ele>111</ele>
        <time>2012-09-15T09:26:57Z</time>
      </trkpt>
      <trkpt lat="49.75692" lon="0.45202">
        <ele>113</ele>
        <time>2012-09-15T09:27:16Z</time>
      </trkpt>
      <trkpt lat="49.75692" lon="0.45202">
        <ele>113</ele>
        <time>2012-09-15T09:27:52Z</time>
      </trkpt>
      <trkpt lat="49.75696" lon="0.45201">
        <ele>113</ele>
        <time>2012-09-15T09:27:55Z</time>
      </trkpt>
      <trkpt lat="49.75705" lon="0.45208">
        <ele>113</ele>
        <time>2012-09-15T09:28:01Z</time>
      </trkpt>
      <trkpt lat="49.75709" lon="0.45218">
        <ele>112</ele>
        <time>2012-09-15T09:28:06Z</time>
      </trkpt>
      <trkpt lat="49.75717" lon="0.45244">
        <ele>109</ele>
        <time>2012-09-15T09:28:16Z</time>
      </trkpt>
      <trkpt lat="49.75718" lon="0.45253">
        <ele>109</ele>
        <time>2012-09-15T09:28:19Z</time>
      </trkpt>
      <trkpt lat="49.75716" lon="0.45258">
        <ele>109</ele>
        <time>2012-09-15T09:28:33Z</time>
      </trkpt>
      <trkpt lat="49.75714" lon="0.45258">
        <ele>109</ele>
        <time>2012-09-15T09:29:22Z</time>
      </trkpt>
      <trkpt lat="49.75691" lon="0.45251">
        <ele>113</ele>
        <time>2012-09-15T09:29:37Z</time>
      </trkpt>
      <trkpt lat="49.75675" lon="0.4523">
        <ele>117</ele>
        <time>2012-09-15T09:29:54Z</time>
      </trkpt>
      <trkpt lat="49.75674" lon="0.45228">
        <ele>117</ele>
        <time>2012-09-15T09:29:55Z</time>
      </trkpt>
      <trkpt lat="49.7568" lon="0.45193">
        <ele>114</ele>
        <time>2012-09-15T09:30:16Z</time>
      </trkpt>
      <trkpt lat="49.75682" lon="0.45177">
        <ele>114</ele>
        <time>2012-09-15T09:30:23Z</time>
      </trkpt>
      <trkpt lat="49.75666" lon="0.45131">
        <ele>114</ele>
        <time>2012-09-15T09:30:40Z</time>
      </trkpt>
      <trkpt lat="49.7564" lon="0.45124">
        <ele>114</ele>
        <time>2012-09-15T09:30:53Z</time>
      </trkpt>
      <trkpt lat="49.75614" lon="0.45149">
        <ele>114</ele>
        <time>2012-09-15T09:31:08Z</time>
      </trkpt>
      <trkpt lat="49.75592" lon="0.45181">
        <ele>117</ele>
        <time>2012-09-15T09:31:22Z</time>
      </trkpt>
      <trkpt lat="49.75569" lon="0.45211">
        <ele>116</ele>
        <time>2012-09-15T09:31:36Z</time>
      </trkpt>
      <trkpt lat="49.75539" lon="0.4524">
        <ele>117</ele>
        <time>2012-09-15T09:31:50Z</time>
      </trkpt>
      <trkpt lat="49.7552" lon="0.45276">
        <ele>118</ele>
        <time>2012-09-15T09:32:01Z</time>
      </trkpt>
      <trkpt lat="49.75462" lon="0.4533">
        <ele>113</ele>
        <time>2012-09-15T09:32:16Z</time>
      </trkpt>
      <trkpt lat="49.75369" lon="0.45394">
        <ele>104</ele>
        <time>2012-09-15T09:32:34Z</time>
      </trkpt>
      <trkpt lat="49.75312" lon="0.45418">
        <ele>100</ele>
        <time>2012-09-15T09:32:42Z</time>
      </trkpt>
      <trkpt lat="49.75271" lon="0.45407">
        <ele>97</ele>
        <time>2012-09-15T09:32:47Z</time>
      </trkpt>
      <trkpt lat="49.75243" lon="0.45392">
        <ele>95</ele>
        <time>2012-09-15T09:32:50Z</time>
      </trkpt>
      <trkpt lat="49.752" lon="0.453">
        <ele>90</ele>
        <time>2012-09-15T09:32:58Z</time>
      </trkpt>
      <trkpt lat="49.75186" lon="0.45269">
        <ele>88</ele>
        <time>2012-09-15T09:33:01Z</time>
      </trkpt>
      <trkpt lat="49.75106" lon="0.45214">
        <ele>85</ele>
        <time>2012-09-15T09:33:08Z</time>
      </trkpt>
      <trkpt lat="49.75054" lon="0.45269">
        <ele>76</ele>
        <time>2012-09-15T09:33:15Z</time>
      </trkpt>
      <trkpt lat="49.75023" lon="0.45317">
        <ele>68</ele>
        <time>2012-09-15T09:33:20Z</time>
      </trkpt>
      <trkpt lat="49.74968" lon="0.45348">
        <ele>64</ele>
        <time>2012-09-15T09:33:29Z</time>
      </trkpt>
      <trkpt lat="49.74966" lon="0.45349">
        <ele>61</ele>
        <time>2012-09-15T09:33:32Z</time>
      </trkpt>
      <trkpt lat="49.74968" lon="0.45366">
        <ele>59</ele>
        <time>2012-09-15T09:33:39Z</time>
      </trkpt>
      <trkpt lat="49.74967" lon="0.45357">
        <ele>60</ele>
        <time>2012-09-15T09:33:46Z</time>
      </trkpt>
      <trkpt lat="49.74958" lon="0.45318">
        <ele>58</ele>
        <time>2012-09-15T09:33:56Z</time>
      </trkpt>
      <trkpt lat="49.74929" lon="0.45189">
        <ele>50</ele>
        <time>2012-09-15T09:34:11Z</time>
      </trkpt>
      <trkpt lat="49.74898" lon="0.45018">
        <ele>41</ele>
        <time>2012-09-15T09:34:26Z</time>
      </trkpt>
      <trkpt lat="49.74895" lon="0.4499">
        <ele>41</ele>
        <time>2012-09-15T09:34:29Z</time>
      </trkpt>
      <trkpt lat="49.74894" lon="0.44949">
        <ele>38</ele>
        <time>2012-09-15T09:34:33Z</time>
      </trkpt>
      <trkpt lat="49.74903" lon="0.44877">
        <ele>35</ele>
        <time>2012-09-15T09:34:40Z</time>
      </trkpt>
      <trkpt lat="49.74901" lon="0.4484">
        <ele>35</ele>
        <time>2012-09-15T09:34:44Z</time>
      </trkpt>
      <trkpt lat="49.7492" lon="0.4479">
        <ele>36</ele>
        <time>2012-09-15T09:34:55Z</time>
      </trkpt>
      <trkpt lat="49.74925" lon="0.44772">
        <ele>37</ele>
        <time>2012-09-15T09:35:01Z</time>
      </trkpt>
      <trkpt lat="49.74927" lon="0.44767">
        <ele>36</ele>
        <time>2012-09-15T09:35:03Z</time>
      </trkpt>
      <trkpt lat="49.74945" lon="0.44714">
        <ele>37</ele>
        <time>2012-09-15T09:35:21Z</time>
      </trkpt>
      <trkpt lat="49.74969" lon="0.44633">
        <ele>37</ele>
        <time>2012-09-15T09:35:38Z</time>
      </trkpt>
      <trkpt lat="49.74974" lon="0.44611">
        <ele>37</ele>
        <time>2012-09-15T09:35:41Z</time>
      </trkpt>
      <trkpt lat="49.74989" lon="0.44452">
        <ele>34</ele>
        <time>2012-09-15T09:36:01Z</time>
      </trkpt>
      <trkpt lat="49.74975" lon="0.44309">
        <ele>31</ele>
        <time>2012-09-15T09:36:17Z</time>
      </trkpt>
      <trkpt lat="49.74972" lon="0.44278">
        <ele>30</ele>
        <time>2012-09-15T09:36:25Z</time>
      </trkpt>
      <trkpt lat="49.74972" lon="0.44276">
        <ele>30</ele>
        <time>2012-09-15T09:36:37Z</time>
      </trkpt>
      <trkpt lat="49.74973" lon="0.44278">
        <ele>30</ele>
        <time>2012-09-15T09:36:42Z</time>
      </trkpt>
      <trkpt lat="49.74973" lon="0.44291">
        <ele>29</ele>
        <time>2012-09-15T09:36:47Z</time>
      </trkpt>
      <trkpt lat="49.74944" lon="0.44296">
        <ele>28</ele>
        <time>2012-09-15T09:36:54Z</time>
      </trkpt>
      <trkpt lat="49.74898" lon="0.4427">
        <ele>26</ele>
        <time>2012-09-15T09:37:02Z</time>
      </trkpt>
      <trkpt lat="49.7486" lon="0.4427">
        <ele>23</ele>
        <time>2012-09-15T09:37:08Z</time>
      </trkpt>
      <trkpt lat="49.74837" lon="0.44268">
        <ele>23</ele>
        <time>2012-09-15T09:37:12Z</time>
      </trkpt>
      <trkpt lat="49.74825" lon="0.44265">
        <ele>23</ele>
        <time>2012-09-15T09:37:14Z</time>
      </trkpt>
      <trkpt lat="49.74776" lon="0.44238">
        <ele>27</ele>
        <time>2012-09-15T09:37:24Z</time>
      </trkpt>
      <trkpt lat="49.74728" lon="0.44195">
        <ele>27</ele>
        <time>2012-09-15T09:37:38Z</time>
      </trkpt>
      <trkpt lat="49.74724" lon="0.44191">
        <ele>26</ele>
        <time>2012-09-15T09:37:39Z</time>
      </trkpt>
      <trkpt lat="49.74674" lon="0.44129">
        <ele>28</ele>
        <time>2012-09-15T09:37:56Z</time>
      </trkpt>
      <trkpt lat="49.7463" lon="0.44072">
        <ele>31</ele>
        <time>2012-09-15T09:38:14Z</time>
      </trkpt>
      <trkpt lat="49.74608" lon="0.44014">
        <ele>29</ele>
        <time>2012-09-15T09:38:28Z</time>
      </trkpt>
      <trkpt lat="49.74597" lon="0.43928">
        <ele>31</ele>
        <time>2012-09-15T09:38:48Z</time>
      </trkpt>
      <trkpt lat="49.74581" lon="0.43835">
        <ele>34</ele>
        <time>2012-09-15T09:39:11Z</time>
      </trkpt>
      <trkpt lat="49.74557" lon="0.43768">
        <ele>37</ele>
        <time>2012-09-15T09:39:28Z</time>
      </trkpt>
      <trkpt lat="49.74509" lon="0.43671">
        <ele>39</ele>
        <time>2012-09-15T09:39:54Z</time>
      </trkpt>
      <trkpt lat="49.74468" lon="0.43614">
        <ele>41</ele>
        <time>2012-09-15T09:40:13Z</time>
      </trkpt>
      <trkpt lat="49.74415" lon="0.4356">
        <ele>41</ele>
        <time>2012-09-15T09:40:38Z</time>
      </trkpt>
      <trkpt lat="49.74375" lon="0.43521">
        <ele>46</ele>
        <time>2012-09-15T09:41:03Z</time>
      </trkpt>
      <trkpt lat="49.74338" lon="0.43489">
        <ele>53</ele>
        <time>2012-09-15T09:41:30Z</time>
      </trkpt>
      <trkpt lat="49.74313" lon="0.43468">
        <ele>57</ele>
        <time>2012-09-15T09:41:51Z</time>
      </trkpt>
      <trkpt lat="49.74288" lon="0.43449">
        <ele>59</ele>
        <time>2012-09-15T09:42:12Z</time>
      </trkpt>
      <trkpt lat="49.74266" lon="0.43419">
        <ele>61</ele>
        <time>2012-09-15T09:42:31Z</time>
      </trkpt>
      <trkpt lat="49.7425" lon="0.43372">
        <ele>65</ele>
        <time>2012-09-15T09:42:56Z</time>
      </trkpt>
      <trkpt lat="49.74242" lon="0.43323">
        <ele>67</ele>
        <time>2012-09-15T09:43:17Z</time>
      </trkpt>
      <trkpt lat="49.74242" lon="0.43322">
        <ele>67</ele>
        <time>2012-09-15T09:43:18Z</time>
      </trkpt>
      <trkpt lat="49.7424" lon="0.43308">
        <ele>66</ele>
        <time>2012-09-15T09:43:26Z</time>
      </trkpt>
      <trkpt lat="49.74239" lon="0.43276">
        <ele>67</ele>
        <time>2012-09-15T09:43:39Z</time>
      </trkpt>
      <trkpt lat="49.74243" lon="0.43258">
        <ele>70</ele>
        <time>2012-09-15T09:43:48Z</time>
      </trkpt>
      <trkpt lat="49.74248" lon="0.43241">
        <ele>74</ele>
        <time>2012-09-15T09:43:58Z</time>
      </trkpt>
      <trkpt lat="49.7425" lon="0.43229">
        <ele>75</ele>
        <time>2012-09-15T09:44:04Z</time>
      </trkpt>
      <trkpt lat="49.74252" lon="0.43223">
        <ele>77</ele>
        <time>2012-09-15T09:44:08Z</time>
      </trkpt>
      <trkpt lat="49.74253" lon="0.43221">
        <ele>78</ele>
        <time>2012-09-15T09:44:11Z</time>
      </trkpt>
      <trkpt lat="49.74256" lon="0.43214">
        <ele>79</ele>
        <time>2012-09-15T09:44:15Z</time>
      </trkpt>
      <trkpt lat="49.74256" lon="0.43214">
        <ele>81</ele>
        <time>2012-09-15T09:44:18Z</time>
      </trkpt>
      <trkpt lat="49.74283" lon="0.43246">
        <ele>83</ele>
        <time>2012-09-15T09:44:26Z</time>
      </trkpt>
      <trkpt lat="49.74283" lon="0.43246">
        <ele>90</ele>
        <time>2012-09-15T09:44:43Z</time>
      </trkpt>
      <trkpt lat="49.74283" lon="0.43246">
        <ele>90</ele>
        <time>2012-09-15T09:44:45Z</time>
      </trkpt>
      <trkpt lat="49.74283" lon="0.43246">
        <ele>92</ele>
        <time>2012-09-15T09:44:49Z</time>
      </trkpt>
      <trkpt lat="49.74283" lon="0.43246">
        <ele>92</ele>
        <time>2012-09-15T09:44:52Z</time>
      </trkpt>
      <trkpt lat="49.74258" lon="0.43161">
        <ele>93</ele>
        <time>2012-09-15T09:44:57Z</time>
      </trkpt>
      <trkpt lat="49.74251" lon="0.43149">
        <ele>96</ele>
        <time>2012-09-15T09:45:10Z</time>
      </trkpt>
      <trkpt lat="49.74248" lon="0.43147">
        <ele>96</ele>
        <time>2012-09-15T09:45:13Z</time>
      </trkpt>
      <trkpt lat="49.74245" lon="0.43145">
        <ele>95</ele>
        <time>2012-09-15T09:45:16Z</time>
      </trkpt>
      <trkpt lat="49.74243" lon="0.43143">
        <ele>95</ele>
        <time>2012-09-15T09:45:18Z</time>
      </trkpt>
      <trkpt lat="49.7424" lon="0.43142">
        <ele>96</ele>
        <time>2012-09-15T09:45:21Z</time>
      </trkpt>
      <trkpt lat="49.74233" lon="0.43136">
        <ele>96</ele>
        <time>2012-09-15T09:45:27Z</time>
      </trkpt>
      <trkpt lat="49.74229" lon="0.43135">
        <ele>95</ele>
        <time>2012-09-15T09:45:30Z</time>
      </trkpt>
      <trkpt lat="49.74213" lon="0.43128">
        <ele>97</ele>
        <time>2012-09-15T09:45:43Z</time>
      </trkpt>
      <trkpt lat="49.74189" lon="0.43097">
        <ele>97</ele>
        <time>2012-09-15T09:46:00Z</time>
      </trkpt>
      <trkpt lat="49.74162" lon="0.43044">
        <ele>97</ele>
        <time>2012-09-15T09:46:23Z</time>
      </trkpt>
      <trkpt lat="49.74139" lon="0.42991">
        <ele>99</ele>
        <time>2012-09-15T09:46:43Z</time>
      </trkpt>
      <trkpt lat="49.74119" lon="0.42941">
        <ele>101</ele>
        <time>2012-09-15T09:47:01Z</time>
      </trkpt>
      <trkpt lat="49.74099" lon="0.42889">
        <ele>103</ele>
        <time>2012-09-15T09:47:19Z</time>
      </trkpt>
      <trkpt lat="49.74069" lon="0.42826">
        <ele>104</ele>
        <time>2012-09-15T09:47:42Z</time>
      </trkpt>
      <trkpt lat="49.74038" lon="0.42774">
        <ele>104</ele>
        <time>2012-09-15T09:48:02Z</time>
      </trkpt>
      <trkpt lat="49.74003" lon="0.4272">
        <ele>107</ele>
        <time>2012-09-15T09:48:22Z</time>
      </trkpt>
      <trkpt lat="49.7397" lon="0.42661">
        <ele>108</ele>
        <time>2012-09-15T09:48:39Z</time>
      </trkpt>
      <trkpt lat="49.73946" lon="0.42616">
        <ele>108</ele>
        <time>2012-09-15T09:48:55Z</time>
      </trkpt>
      <trkpt lat="49.73947" lon="0.42607">
        <ele>106</ele>
        <time>2012-09-15T09:49:29Z</time>
      </trkpt>
      <trkpt lat="49.73951" lon="0.42589">
        <ele>105</ele>
        <time>2012-09-15T09:50:15Z</time>
      </trkpt>
      <trkpt lat="49.73945" lon="0.426">
        <ele>105</ele>
        <time>2012-09-15T09:50:19Z</time>
      </trkpt>
      <trkpt lat="49.73913" lon="0.42562">
        <ele>104</ele>
        <time>2012-09-15T09:50:34Z</time>
      </trkpt>
      <trkpt lat="49.73878" lon="0.4251">
        <ele>107</ele>
        <time>2012-09-15T09:50:51Z</time>
      </trkpt>
      <trkpt lat="49.73847" lon="0.42462">
        <ele>107</ele>
        <time>2012-09-15T09:51:06Z</time>
      </trkpt>
      <trkpt lat="49.73844" lon="0.42456">
        <ele>109</ele>
        <time>2012-09-15T09:51:10Z</time>
      </trkpt>
      <trkpt lat="49.7382" lon="0.42421">
        <ele>107</ele>
        <time>2012-09-15T09:51:23Z</time>
      </trkpt>
      <trkpt lat="49.73792" lon="0.42386">
        <ele>104</ele>
        <time>2012-09-15T09:51:31Z</time>
      </trkpt>
      <trkpt lat="49.73747" lon="0.42316">
        <ele>103</ele>
        <time>2012-09-15T09:51:45Z</time>
      </trkpt>
      <trkpt lat="49.73753" lon="0.42293">
        <ele>104</ele>
        <time>2012-09-15T09:51:53Z</time>
      </trkpt>
      <trkpt lat="49.73767" lon="0.42275">
        <ele>107</ele>
        <time>2012-09-15T09:52:03Z</time>
      </trkpt>
      <trkpt lat="49.73756" lon="0.4223">
        <ele>105</ele>
        <time>2012-09-15T09:52:16Z</time>
      </trkpt>
      <trkpt lat="49.73727" lon="0.42179">
        <ele>103</ele>
        <time>2012-09-15T09:52:33Z</time>
      </trkpt>
      <trkpt lat="49.73719" lon="0.42129">
        <ele>101</ele>
        <time>2012-09-15T09:52:44Z</time>
      </trkpt>
      <trkpt lat="49.73698" lon="0.42045">
        <ele>100</ele>
        <time>2012-09-15T09:53:02Z</time>
      </trkpt>
      <trkpt lat="49.73667" lon="0.41945">
        <ele>99</ele>
        <time>2012-09-15T09:53:25Z</time>
      </trkpt>
      <trkpt lat="49.73642" lon="0.41873">
        <ele>97</ele>
        <time>2012-09-15T09:53:47Z</time>
      </trkpt>
      <trkpt lat="49.73627" lon="0.41829">
        <ele>96</ele>
        <time>2012-09-15T09:54:05Z</time>
      </trkpt>
      <trkpt lat="49.73604" lon="0.4177">
        <ele>91</ele>
        <time>2012-09-15T09:54:24Z</time>
      </trkpt>
      <trkpt lat="49.73589" lon="0.41737">
        <ele>86</ele>
        <time>2012-09-15T09:54:33Z</time>
      </trkpt>
      <trkpt lat="49.73559" lon="0.41708">
        <ele>76</ele>
        <time>2012-09-15T09:54:45Z</time>
      </trkpt>
      <trkpt lat="49.73554" lon="0.41704">
        <ele>75</ele>
        <time>2012-09-15T09:54:54Z</time>
      </trkpt>
      <trkpt lat="49.73527" lon="0.41699">
        <ele>73</ele>
        <time>2012-09-15T09:55:04Z</time>
      </trkpt>
      <trkpt lat="49.73527" lon="0.41699">
        <ele>73</ele>
        <time>2012-09-15T09:55:16Z</time>
      </trkpt>
      <trkpt lat="49.73527" lon="0.41699">
        <ele>74</ele>
        <time>2012-09-15T09:56:22Z</time>
      </trkpt>
      <trkpt lat="49.73482" lon="0.41695">
        <ele>75</ele>
        <time>2012-09-15T09:56:59Z</time>
      </trkpt>
      <trkpt lat="49.73471" lon="0.41656">
        <ele>71</ele>
        <time>2012-09-15T09:57:09Z</time>
      </trkpt>
      <trkpt lat="49.73466" lon="0.41644">
        <ele>71</ele>
        <time>2012-09-15T09:57:12Z</time>
      </trkpt>
      <trkpt lat="49.73453" lon="0.41626">
        <ele>66</ele>
        <time>2012-09-15T09:57:23Z</time>
      </trkpt>
      <trkpt lat="49.73453" lon="0.41626">
        <ele>66</ele>
        <time>2012-09-15T09:57:24Z</time>
      </trkpt>
      <trkpt lat="49.7345" lon="0.41592">
        <ele>63</ele>
        <time>2012-09-15T09:57:28Z</time>
      </trkpt>
      <trkpt lat="49.73449" lon="0.41575">
        <ele>59</ele>
        <time>2012-09-15T09:57:32Z</time>
      </trkpt>
      <trkpt lat="49.73451" lon="0.41524">
        <ele>59</ele>
        <time>2012-09-15T09:57:48Z</time>
      </trkpt>
      <trkpt lat="49.73451" lon="0.41492">
        <ele>62</ele>
        <time>2012-09-15T09:58:00Z</time>
      </trkpt>
      <trkpt lat="49.73451" lon="0.41481">
        <ele>62</ele>
        <time>2012-09-15T09:58:18Z</time>
      </trkpt>
      <trkpt lat="49.73452" lon="0.41475">
        <ele>62</ele>
        <time>2012-09-15T09:58:21Z</time>
      </trkpt>
      <trkpt lat="49.73461" lon="0.41418">
        <ele>57</ele>
        <time>2012-09-15T09:58:37Z</time>
      </trkpt>
      <trkpt lat="49.73482" lon="0.41387">
        <ele>55</ele>
        <time>2012-09-15T09:58:50Z</time>
      </trkpt>
      <trkpt lat="49.73497" lon="0.41349">
        <ele>54</ele>
        <time>2012-09-15T09:59:09Z</time>
      </trkpt>
      <trkpt lat="49.73504" lon="0.41326">
        <ele>48</ele>
        <time>2012-09-15T09:59:27Z</time>
      </trkpt>
      <trkpt lat="49.73511" lon="0.41297">
        <ele>46</ele>
        <time>2012-09-15T09:59:35Z</time>
      </trkpt>
      <trkpt lat="49.7351" lon="0.41292">
        <ele>45</ele>
        <time>2012-09-15T09:59:37Z</time>
      </trkpt>
      <trkpt lat="49.7351" lon="0.41292">
        <ele>44</ele>
        <time>2012-09-15T09:59:51Z</time>
      </trkpt>
      <trkpt lat="49.7351" lon="0.41292">
        <ele>41</ele>
        <time>2012-09-15T10:01:44Z</time>
      </trkpt>
      <trkpt lat="49.73501" lon="0.41276">
        <ele>38</ele>
        <time>2012-09-15T10:01:50Z</time>
      </trkpt>
      <trkpt lat="49.73482" lon="0.41254">
        <ele>36</ele>
        <time>2012-09-15T10:01:56Z</time>
      </trkpt>
      <trkpt lat="49.73406" lon="0.41192">
        <ele>33</ele>
        <time>2012-09-15T10:02:13Z</time>
      </trkpt>
      <trkpt lat="49.73393" lon="0.4119">
        <ele>34</ele>
        <time>2012-09-15T10:02:18Z</time>
      </trkpt>
      <trkpt lat="49.73393" lon="0.4119">
        <ele>33</ele>
        <time>2012-09-15T10:02:21Z</time>
      </trkpt>
      <trkpt lat="49.73383" lon="0.41191">
        <ele>33</ele>
        <time>2012-09-15T10:02:29Z</time>
      </trkpt>
      <trkpt lat="49.73369" lon="0.41192">
        <ele>30</ele>
        <time>2012-09-15T10:02:38Z</time>
      </trkpt>
      <trkpt lat="49.7336" lon="0.41192">
        <ele>31</ele>
        <time>2012-09-15T10:02:43Z</time>
      </trkpt>
      <trkpt lat="49.7333" lon="0.41173">
        <ele>29</ele>
        <time>2012-09-15T10:02:58Z</time>
      </trkpt>
      <trkpt lat="49.73298" lon="0.41152">
        <ele>30</ele>
        <time>2012-09-15T10:03:12Z</time>
      </trkpt>
      <trkpt lat="49.73293" lon="0.41148">
        <ele>30</ele>
        <time>2012-09-15T10:03:14Z</time>
      </trkpt>
      <trkpt lat="49.73293" lon="0.41134">
        <ele>30</ele>
        <time>2012-09-15T10:03:18Z</time>
      </trkpt>
      <trkpt lat="49.73331" lon="0.41085">
        <ele>31</ele>
        <time>2012-09-15T10:03:40Z</time>
      </trkpt>
      <trkpt lat="49.73352" lon="0.41059">
        <ele>33</ele>
        <time>2012-09-15T10:03:51Z</time>
      </trkpt>
      <trkpt lat="49.73352" lon="0.4104">
        <ele>33</ele>
        <time>2012-09-15T10:03:57Z</time>
      </trkpt>
      <trkpt lat="49.73324" lon="0.40996">
        <ele>33</ele>
        <time>2012-09-15T10:04:15Z</time>
      </trkpt>
      <trkpt lat="49.73314" lon="0.40982">
        <ele>33</ele>
        <time>2012-09-15T10:04:21Z</time>
      </trkpt>
      <trkpt lat="49.73316" lon="0.40967">
        <ele>34</ele>
        <time>2012-09-15T10:04:26Z</time>
      </trkpt>
      <trkpt lat="49.73348" lon="0.40931">
        <ele>36</ele>
        <time>2012-09-15T10:04:43Z</time>
      </trkpt>
      <trkpt lat="49.73384" lon="0.40907">
        <ele>36</ele>
        <time>2012-09-15T10:05:00Z</time>
      </trkpt>
      <trkpt lat="49.73419" lon="0.40883">
        <ele>37</ele>
        <time>2012-09-15T10:05:19Z</time>
      </trkpt>
      <trkpt lat="49.7344" lon="0.40865">
        <ele>41</ele>
        <time>2012-09-15T10:05:35Z</time>
      </trkpt>
      <trkpt lat="49.73458" lon="0.40843">
        <ele>44</ele>
        <time>2012-09-15T10:05:52Z</time>
      </trkpt>
      <trkpt lat="49.73462" lon="0.40837">
        <ele>46</ele>
        <time>2012-09-15T10:05:56Z</time>
      </trkpt>
      <trkpt lat="49.7347" lon="0.40826">
        <ele>47</ele>
        <time>2012-09-15T10:06:04Z</time>
      </trkpt>
      <trkpt lat="49.73471" lon="0.40824">
        <ele>46</ele>
        <time>2012-09-15T10:06:08Z</time>
      </trkpt>
      <trkpt lat="49.73473" lon="0.40797">
        <ele>45</ele>
        <time>2012-09-15T10:06:15Z</time>
      </trkpt>
      <trkpt lat="49.73472" lon="0.40789">
        <ele>45</ele>
        <time>2012-09-15T10:06:20Z</time>
      </trkpt>
      <trkpt lat="49.73471" lon="0.40785">
        <ele>46</ele>
        <time>2012-09-15T10:06:22Z</time>
      </trkpt>
      <trkpt lat="49.73467" lon="0.40754">
        <ele>48</ele>
        <time>2012-09-15T10:06:34Z</time>
      </trkpt>
      <trkpt lat="49.73466" lon="0.40697">
        <ele>48</ele>
        <time>2012-09-15T10:06:59Z</time>
      </trkpt>
      <trkpt lat="49.73466" lon="0.40669">
        <ele>49</ele>
        <time>2012-09-15T10:07:11Z</time>
      </trkpt>
      <trkpt lat="49.73466" lon="0.40631">
        <ele>50</ele>
        <time>2012-09-15T10:07:28Z</time>
      </trkpt>
      <trkpt lat="49.73462" lon="0.40592">
        <ele>51</ele>
        <time>2012-09-15T10:07:53Z</time>
      </trkpt>
      <trkpt lat="49.73462" lon="0.40592">
        <ele>51</ele>
        <time>2012-09-15T10:08:22Z</time>
      </trkpt>
      <trkpt lat="49.73462" lon="0.40592">
        <ele>50</ele>
        <time>2012-09-15T10:10:24Z</time>
      </trkpt>
      <trkpt lat="49.73462" lon="0.40592">
        <ele>50</ele>
        <time>2012-09-15T10:10:36Z</time>
      </trkpt>
      <trkpt lat="49.73461" lon="0.40576">
        <ele>51</ele>
        <time>2012-09-15T10:10:44Z</time>
      </trkpt>
      <trkpt lat="49.73456" lon="0.40535">
        <ele>52</ele>
        <time>2012-09-15T10:10:58Z</time>
      </trkpt>
      <trkpt lat="49.73443" lon="0.40479">
        <ele>54</ele>
        <time>2012-09-15T10:11:16Z</time>
      </trkpt>
      <trkpt lat="49.7343" lon="0.40423">
        <ele>57</ele>
        <time>2012-09-15T10:11:34Z</time>
      </trkpt>
      <trkpt lat="49.73419" lon="0.40377">
        <ele>58</ele>
        <time>2012-09-15T10:11:50Z</time>
      </trkpt>
      <trkpt lat="49.7342" lon="0.4036">
        <ele>59</ele>
        <time>2012-09-15T10:11:55Z</time>
      </trkpt>
      <trkpt lat="49.7343" lon="0.40308">
        <ele>62</ele>
        <time>2012-09-15T10:12:15Z</time>
      </trkpt>
      <trkpt lat="49.73441" lon="0.40239">
        <ele>63</ele>
        <time>2012-09-15T10:12:40Z</time>
      </trkpt>
      <trkpt lat="49.73444" lon="0.4022">
        <ele>63</ele>
        <time>2012-09-15T10:12:55Z</time>
      </trkpt>
      <trkpt lat="49.73448" lon="0.40189">
        <ele>64</ele>
        <time>2012-09-15T10:14:45Z</time>
      </trkpt>
      <trkpt lat="49.73457" lon="0.40134">
        <ele>66</ele>
        <time>2012-09-15T10:15:06Z</time>
      </trkpt>
      <trkpt lat="49.73465" lon="0.40088">
        <ele>71</ele>
        <time>2012-09-15T10:15:29Z</time>
      </trkpt>
      <trkpt lat="49.73477" lon="0.40041">
        <ele>77</ele>
        <time>2012-09-15T10:15:57Z</time>
      </trkpt>
      <trkpt lat="49.73484" lon="0.40025">
        <ele>78</ele>
        <time>2012-09-15T10:16:11Z</time>
      </trkpt>
      <trkpt lat="49.73501" lon="0.39991">
        <ele>82</ele>
        <time>2012-09-15T10:16:31Z</time>
      </trkpt>
      <trkpt lat="49.73506" lon="0.3998">
        <ele>84</ele>
        <time>2012-09-15T10:16:49Z</time>
      </trkpt>
      <trkpt lat="49.73511" lon="0.3996">
        <ele>85</ele>
        <time>2012-09-15T10:16:55Z</time>
      </trkpt>
      <trkpt lat="49.73495" lon="0.39907">
        <ele>88</ele>
        <time>2012-09-15T10:17:25Z</time>
      </trkpt>
      <trkpt lat="49.73482" lon="0.39873">
        <ele>90</ele>
        <time>2012-09-15T10:17:46Z</time>
      </trkpt>
      <trkpt lat="49.73467" lon="0.39837">
        <ele>92</ele>
        <time>2012-09-15T10:18:11Z</time>
      </trkpt>
      <trkpt lat="49.73458" lon="0.39816">
        <ele>93</ele>
        <time>2012-09-15T10:18:23Z</time>
      </trkpt>
      <trkpt lat="49.73441" lon="0.39782">
        <ele>96</ele>
        <time>2012-09-15T10:18:45Z</time>
      </trkpt>
      <trkpt lat="49.73424" lon="0.39745">
        <ele>100</ele>
        <time>2012-09-15T10:19:09Z</time>
      </trkpt>
      <trkpt lat="49.73407" lon="0.39707">
        <ele>103</ele>
        <time>2012-09-15T10:19:33Z</time>
      </trkpt>
      <trkpt lat="49.73395" lon="0.39677">
        <ele>104</ele>
        <time>2012-09-15T10:19:53Z</time>
      </trkpt>
      <trkpt lat="49.73379" lon="0.39632">
        <ele>106</ele>
        <time>2012-09-15T10:20:18Z</time>
      </trkpt>
      <trkpt lat="49.73368" lon="0.39589">
        <ele>108</ele>
        <time>2012-09-15T10:20:35Z</time>
      </trkpt>
      <trkpt lat="49.73346" lon="0.39511">
        <ele>109</ele>
        <time>2012-09-15T10:21:01Z</time>
      </trkpt>
      <trkpt lat="49.73335" lon="0.39491">
        <ele>108</ele>
        <time>2012-09-15T10:21:10Z</time>
      </trkpt>
      <trkpt lat="49.73339" lon="0.39417">
        <ele>109</ele>
        <time>2012-09-15T10:21:28Z</time>
      </trkpt>
      <trkpt lat="49.73337" lon="0.3931">
        <ele>107</ele>
        <time>2012-09-15T10:21:50Z</time>
      </trkpt>
      <trkpt lat="49.73323" lon="0.3921">
        <ele>105</ele>
        <time>2012-09-15T10:22:08Z</time>
      </trkpt>
      <trkpt lat="49.73292" lon="0.3913">
        <ele>105</ele>
        <time>2012-09-15T10:22:27Z</time>
      </trkpt>
      <trkpt lat="49.73265" lon="0.39065">
        <ele>104</ele>
        <time>2012-09-15T10:22:41Z</time>
      </trkpt>
      <trkpt lat="49.73263" lon="0.39059">
        <ele>104</ele>
        <time>2012-09-15T10:22:42Z</time>
      </trkpt>
      <trkpt lat="49.73266" lon="0.39027">
        <ele>103</ele>
        <time>2012-09-15T10:22:47Z</time>
      </trkpt>
      <trkpt lat="49.73274" lon="0.38985">
        <ele>102</ele>
        <time>2012-09-15T10:22:56Z</time>
      </trkpt>
      <trkpt lat="49.73287" lon="0.38984">
        <ele>103</ele>
        <time>2012-09-15T10:23:00Z</time>
      </trkpt>
      <trkpt lat="49.73275" lon="0.38982">
        <ele>103</ele>
        <time>2012-09-15T10:23:04Z</time>
      </trkpt>
      <trkpt lat="49.73275" lon="0.38984">
        <ele>103</ele>
        <time>2012-09-15T10:23:09Z</time>
      </trkpt>
      <trkpt lat="49.73326" lon="0.3899">
        <ele>107</ele>
        <time>2012-09-15T10:23:24Z</time>
      </trkpt>
      <trkpt lat="49.73379" lon="0.38995">
        <ele>109</ele>
        <time>2012-09-15T10:23:42Z</time>
      </trkpt>
      <trkpt lat="49.7342" lon="0.39015">
        <ele>111</ele>
        <time>2012-09-15T10:23:56Z</time>
      </trkpt>
      <trkpt lat="49.73486" lon="0.39012">
        <ele>109</ele>
        <time>2012-09-15T10:24:19Z</time>
      </trkpt>
      <trkpt lat="49.73547" lon="0.38981">
        <ele>106</ele>
        <time>2012-09-15T10:24:36Z</time>
      </trkpt>
      <trkpt lat="49.73627" lon="0.38944">
        <ele>103</ele>
        <time>2012-09-15T10:24:59Z</time>
      </trkpt>
      <trkpt lat="49.73627" lon="0.38944">
        <ele>104</ele>
        <time>2012-09-15T10:25:07Z</time>
      </trkpt>
      <trkpt lat="49.73627" lon="0.38944">
        <ele>104</ele>
        <time>2012-09-15T10:25:31Z</time>
      </trkpt>
      <trkpt lat="49.73666" lon="0.38915">
        <ele>104</ele>
        <time>2012-09-15T10:25:43Z</time>
      </trkpt>
      <trkpt lat="49.737" lon="0.38907">
        <ele>102</ele>
        <time>2012-09-15T10:25:56Z</time>
      </trkpt>
      <trkpt lat="49.73797" lon="0.38886">
        <ele>100</ele>
        <time>2012-09-15T10:26:17Z</time>
      </trkpt>
      <trkpt lat="49.7391" lon="0.38863">
        <ele>98</ele>
        <time>2012-09-15T10:26:40Z</time>
      </trkpt>
      <trkpt lat="49.74047" lon="0.38864">
        <ele>98</ele>
        <time>2012-09-15T10:27:09Z</time>
      </trkpt>
      <trkpt lat="49.7417" lon="0.38859">
        <ele>98</ele>
        <time>2012-09-15T10:27:36Z</time>
      </trkpt>
      <trkpt lat="49.74257" lon="0.38857">
        <ele>98</ele>
        <time>2012-09-15T10:27:54Z</time>
      </trkpt>
      <trkpt lat="49.74348" lon="0.38892">
        <ele>100</ele>
        <time>2012-09-15T10:28:15Z</time>
      </trkpt>
      <trkpt lat="49.74348" lon="0.38892">
        <ele>100</ele>
        <time>2012-09-15T10:28:16Z</time>
      </trkpt>
      <trkpt lat="49.74358" lon="0.38907">
        <ele>101</ele>
        <time>2012-09-15T10:28:20Z</time>
      </trkpt>
      <trkpt lat="49.74386" lon="0.38935">
        <ele>99</ele>
        <time>2012-09-15T10:28:30Z</time>
      </trkpt>
      <trkpt lat="49.74395" lon="0.38924">
        <ele>98</ele>
        <time>2012-09-15T10:28:34Z</time>
      </trkpt>
      <trkpt lat="49.74421" lon="0.38924">
        <ele>98</ele>
        <time>2012-09-15T10:28:40Z</time>
      </trkpt>
      <trkpt lat="49.74525" lon="0.38964">
        <ele>97</ele>
        <time>2012-09-15T10:29:04Z</time>
      </trkpt>
      <trkpt lat="49.74576" lon="0.39018">
        <ele>97</ele>
        <time>2012-09-15T10:29:18Z</time>
      </trkpt>
      <trkpt lat="49.74586" lon="0.39043">
        <ele>95</ele>
        <time>2012-09-15T10:29:22Z</time>
      </trkpt>
      <trkpt lat="49.74595" lon="0.39065">
        <ele>94</ele>
        <time>2012-09-15T10:29:26Z</time>
      </trkpt>
      <trkpt lat="49.74598" lon="0.39078">
        <ele>94</ele>
        <time>2012-09-15T10:29:30Z</time>
      </trkpt>
      <trkpt lat="49.74599" lon="0.3908">
        <ele>94</ele>
        <time>2012-09-15T10:29:46Z</time>
      </trkpt>
      <trkpt lat="49.74607" lon="0.39116">
        <ele>93</ele>
        <time>2012-09-15T10:29:57Z</time>
      </trkpt>
      <trkpt lat="49.74608" lon="0.39138">
        <ele>92</ele>
        <time>2012-09-15T10:30:01Z</time>
      </trkpt>
      <trkpt lat="49.74607" lon="0.39192">
        <ele>89</ele>
        <time>2012-09-15T10:30:08Z</time>
      </trkpt>
      <trkpt lat="49.74605" lon="0.39205">
        <ele>88</ele>
        <time>2012-09-15T10:30:16Z</time>
      </trkpt>
      <trkpt lat="49.74602" lon="0.39217">
        <ele>87</ele>
        <time>2012-09-15T10:30:22Z</time>
      </trkpt>
      <trkpt lat="49.74595" lon="0.39246">
        <ele>85</ele>
        <time>2012-09-15T10:30:26Z</time>
      </trkpt>
      <trkpt lat="49.74557" lon="0.39388">
        <ele>80</ele>
        <time>2012-09-15T10:30:39Z</time>
      </trkpt>
      <trkpt lat="49.74556" lon="0.39431">
        <ele>78</ele>
        <time>2012-09-15T10:30:42Z</time>
      </trkpt>
      <trkpt lat="49.7458" lon="0.39542">
        <ele>73</ele>
        <time>2012-09-15T10:30:50Z</time>
      </trkpt>
      <trkpt lat="49.74614" lon="0.39598">
        <ele>69</ele>
        <time>2012-09-15T10:30:55Z</time>
      </trkpt>
      <trkpt lat="49.7467" lon="0.39616">
        <ele>65</ele>
        <time>2012-09-15T10:31:01Z</time>
      </trkpt>
      <trkpt lat="49.74771" lon="0.396">
        <ele>57</ele>
        <time>2012-09-15T10:31:11Z</time>
      </trkpt>
      <trkpt lat="49.74818" lon="0.39647">
        <ele>53</ele>
        <time>2012-09-15T10:31:17Z</time>
      </trkpt>
      <trkpt lat="49.74803" lon="0.39724">
        <ele>49</ele>
        <time>2012-09-15T10:31:22Z</time>
      </trkpt>
      <trkpt lat="49.74782" lon="0.3974">
        <ele>47</ele>
        <time>2012-09-15T10:31:24Z</time>
      </trkpt>
      <trkpt lat="49.7476" lon="0.3975">
        <ele>45</ele>
        <time>2012-09-15T10:31:26Z</time>
      </trkpt>
      <trkpt lat="49.74706" lon="0.39804">
        <ele>42</ele>
        <time>2012-09-15T10:31:32Z</time>
      </trkpt>
      <trkpt lat="49.74671" lon="0.39855">
        <ele>41</ele>
        <time>2012-09-15T10:31:37Z</time>
      </trkpt>
      <trkpt lat="49.74603" lon="0.39877">
        <ele>38</ele>
        <time>2012-09-15T10:31:45Z</time>
      </trkpt>
      <trkpt lat="49.74529" lon="0.39918">
        <ele>32</ele>
        <time>2012-09-15T10:31:54Z</time>
      </trkpt>
      <trkpt lat="49.74513" lon="0.39975">
        <ele>29</ele>
        <time>2012-09-15T10:31:58Z</time>
      </trkpt>
      <trkpt lat="49.74502" lon="0.40063">
        <ele>25</ele>
        <time>2012-09-15T10:32:04Z</time>
      </trkpt>
      <trkpt lat="49.74505" lon="0.40093">
        <ele>23</ele>
        <time>2012-09-15T10:32:07Z</time>
      </trkpt>
      <trkpt lat="49.74504" lon="0.40102">
        <ele>22</ele>
        <time>2012-09-15T10:32:14Z</time>
      </trkpt>
      <trkpt lat="49.74543" lon="0.40055">
        <ele>24</ele>
        <time>2012-09-15T10:32:29Z</time>
      </trkpt>
      <trkpt lat="49.74565" lon="0.40022">
        <ele>27</ele>
        <time>2012-09-15T10:32:45Z</time>
      </trkpt>
      <trkpt lat="49.74572" lon="0.40018">
        <ele>27</ele>
        <time>2012-09-15T10:32:49Z</time>
      </trkpt>
      <trkpt lat="49.74578" lon="0.40016">
        <ele>27</ele>
        <time>2012-09-15T10:32:52Z</time>
      </trkpt>
      <trkpt lat="49.74615" lon="0.40014">
        <ele>29</ele>
        <time>2012-09-15T10:33:09Z</time>
      </trkpt>
      <trkpt lat="49.74646" lon="0.40004">
        <ele>31</ele>
        <time>2012-09-15T10:33:24Z</time>
      </trkpt>
      <trkpt lat="49.74666" lon="0.39997">
        <ele>30</ele>
        <time>2012-09-15T10:33:30Z</time>
      </trkpt>
      <trkpt lat="49.74732" lon="0.39981">
        <ele>28</ele>
        <time>2012-09-15T10:33:43Z</time>
      </trkpt>
      <trkpt lat="49.74745" lon="0.39975">
        <ele>28</ele>
        <time>2012-09-15T10:33:46Z</time>
      </trkpt>
      <trkpt lat="49.74788" lon="0.39938">
        <ele>28</ele>
        <time>2012-09-15T10:34:00Z</time>
      </trkpt>
      <trkpt lat="49.74851" lon="0.39899">
        <ele>28</ele>
        <time>2012-09-15T10:34:19Z</time>
      </trkpt>
      <trkpt lat="49.74881" lon="0.39875">
        <ele>28</ele>
        <time>2012-09-15T10:34:29Z</time>
      </trkpt>
      <trkpt lat="49.7493" lon="0.39828">
        <ele>28</ele>
        <time>2012-09-15T10:34:45Z</time>
      </trkpt>
      <trkpt lat="49.74972" lon="0.39794">
        <ele>29</ele>
        <time>2012-09-15T10:35:00Z</time>
      </trkpt>
      <trkpt lat="49.75003" lon="0.39739">
        <ele>31</ele>
        <time>2012-09-15T10:35:15Z</time>
      </trkpt>
      <trkpt lat="49.75027" lon="0.39683">
        <ele>31</ele>
        <time>2012-09-15T10:35:30Z</time>
      </trkpt>
      <trkpt lat="49.75069" lon="0.39602">
        <ele>30</ele>
        <time>2012-09-15T10:35:47Z</time>
      </trkpt>
      <trkpt lat="49.75116" lon="0.39511">
        <ele>29</ele>
        <time>2012-09-15T10:36:06Z</time>
      </trkpt>
      <trkpt lat="49.75135" lon="0.39468">
        <ele>28</ele>
        <time>2012-09-15T10:36:15Z</time>
      </trkpt>
      <trkpt lat="49.75149" lon="0.39418">
        <ele>26</ele>
        <time>2012-09-15T10:36:22Z</time>
      </trkpt>
      <trkpt lat="49.75155" lon="0.39393">
        <ele>24</ele>
        <time>2012-09-15T10:36:25Z</time>
      </trkpt>
      <trkpt lat="49.75177" lon="0.39321">
        <ele>21</ele>
        <time>2012-09-15T10:36:34Z</time>
      </trkpt>
      <trkpt lat="49.7518" lon="0.39292">
        <ele>20</ele>
        <time>2012-09-15T10:36:42Z</time>
      </trkpt>
      <trkpt lat="49.75181" lon="0.39253">
        <ele>21</ele>
        <time>2012-09-15T10:36:58Z</time>
      </trkpt>
      <trkpt lat="49.75184" lon="0.3922">
        <ele>25</ele>
        <time>2012-09-15T10:37:13Z</time>
      </trkpt>
      <trkpt lat="49.75174" lon="0.39126">
        <ele>26</ele>
        <time>2012-09-15T10:37:37Z</time>
      </trkpt>
      <trkpt lat="49.75182" lon="0.39061">
        <ele>27</ele>
        <time>2012-09-15T10:37:53Z</time>
      </trkpt>
      <trkpt lat="49.75199" lon="0.38984">
        <ele>27</ele>
        <time>2012-09-15T10:38:13Z</time>
      </trkpt>
      <trkpt lat="49.75202" lon="0.3897">
        <ele>26</ele>
        <time>2012-09-15T10:38:18Z</time>
      </trkpt>
      <trkpt lat="49.75203" lon="0.38964">
        <ele>24</ele>
        <time>2012-09-15T10:38:21Z</time>
      </trkpt>
      <trkpt lat="49.75204" lon="0.38952">
        <ele>24</ele>
        <time>2012-09-15T10:38:29Z</time>
      </trkpt>
      <trkpt lat="49.7521" lon="0.38949">
        <ele>25</ele>
        <time>2012-09-15T10:38:38Z</time>
      </trkpt>
      <trkpt lat="49.75212" lon="0.3895">
        <ele>26</ele>
        <time>2012-09-15T10:38:44Z</time>
      </trkpt>
      <trkpt lat="49.75212" lon="0.3895">
        <ele>26</ele>
        <time>2012-09-15T10:38:52Z</time>
      </trkpt>
      <trkpt lat="49.75212" lon="0.3895">
        <ele>26</ele>
        <time>2012-09-15T10:38:56Z</time>
      </trkpt>
      <trkpt lat="49.75212" lon="0.3895">
        <ele>25</ele>
        <time>2012-09-15T10:39:01Z</time>
      </trkpt>
      <trkpt lat="49.75221" lon="0.38871">
        <ele>23</ele>
        <time>2012-09-15T10:39:17Z</time>
      </trkpt>
      <trkpt lat="49.7523" lon="0.38795">
        <ele>21</ele>
        <time>2012-09-15T10:39:32Z</time>
      </trkpt>
      <trkpt lat="49.75233" lon="0.38775">
        <ele>21</ele>
        <time>2012-09-15T10:39:41Z</time>
      </trkpt>
      <trkpt lat="49.7524" lon="0.3872">
        <ele>23</ele>
        <time>2012-09-15T10:39:54Z</time>
      </trkpt>
      <trkpt lat="49.75242" lon="0.38704">
        <ele>23</ele>
        <time>2012-09-15T10:39:57Z</time>
      </trkpt>
      <trkpt lat="49.75247" lon="0.38671">
        <ele>22</ele>
        <time>2012-09-15T10:40:04Z</time>
      </trkpt>
      <trkpt lat="49.7526" lon="0.38583">
        <ele>21</ele>
        <time>2012-09-15T10:40:20Z</time>
      </trkpt>
      <trkpt lat="49.75275" lon="0.38508">
        <ele>21</ele>
        <time>2012-09-15T10:40:37Z</time>
      </trkpt>
      <trkpt lat="49.75291" lon="0.38435">
        <ele>21</ele>
        <time>2012-09-15T10:40:53Z</time>
      </trkpt>
      <trkpt lat="49.75303" lon="0.38373">
        <ele>20</ele>
        <time>2012-09-15T10:41:07Z</time>
      </trkpt>
      <trkpt lat="49.75304" lon="0.3837">
        <ele>20</ele>
        <time>2012-09-15T10:41:08Z</time>
      </trkpt>
      <trkpt lat="49.75305" lon="0.38366">
        <ele>20</ele>
        <time>2012-09-15T10:41:10Z</time>
      </trkpt>
      <trkpt lat="49.75309" lon="0.3835">
        <ele>19</ele>
        <time>2012-09-15T10:41:15Z</time>
      </trkpt>
      <trkpt lat="49.75326" lon="0.38316">
        <ele>21</ele>
        <time>2012-09-15T10:41:25Z</time>
      </trkpt>
      <trkpt lat="49.75334" lon="0.38304">
        <ele>21</ele>
        <time>2012-09-15T10:41:29Z</time>
      </trkpt>
      <trkpt lat="49.7535" lon="0.38281">
        <ele>19</ele>
        <time>2012-09-15T10:41:36Z</time>
      </trkpt>
      <trkpt lat="49.75383" lon="0.38233">
        <ele>16</ele>
        <time>2012-09-15T10:41:49Z</time>
      </trkpt>
      <trkpt lat="49.75392" lon="0.38216">
        <ele>16</ele>
        <time>2012-09-15T10:41:58Z</time>
      </trkpt>
      <trkpt lat="49.75397" lon="0.38207">
        <ele>16</ele>
        <time>2012-09-15T10:42:02Z</time>
      </trkpt>
      <trkpt lat="49.75399" lon="0.38204">
        <ele>17</ele>
        <time>2012-09-15T10:42:04Z</time>
      </trkpt>
      <trkpt lat="49.75407" lon="0.38193">
        <ele>18</ele>
        <time>2012-09-15T10:42:10Z</time>
      </trkpt>
      <trkpt lat="49.75429" lon="0.38159">
        <ele>16</ele>
        <time>2012-09-15T10:42:24Z</time>
      </trkpt>
      <trkpt lat="49.75429" lon="0.38159">
        <ele>18</ele>
        <time>2012-09-15T10:42:36Z</time>
      </trkpt>
      <trkpt lat="49.75435" lon="0.38145">
        <ele>18</ele>
        <time>2012-09-15T10:42:49Z</time>
      </trkpt>
      <trkpt lat="49.75446" lon="0.381">
        <ele>17</ele>
        <time>2012-09-15T10:43:01Z</time>
      </trkpt>
      <trkpt lat="49.75446" lon="0.38096">
        <ele>17</ele>
        <time>2012-09-15T10:43:02Z</time>
      </trkpt>
      <trkpt lat="49.75461" lon="0.3803">
        <ele>13</ele>
        <time>2012-09-15T10:43:19Z</time>
      </trkpt>
      <trkpt lat="49.75462" lon="0.38024">
        <ele>12</ele>
        <time>2012-09-15T10:43:21Z</time>
      </trkpt>
      <trkpt lat="49.75462" lon="0.38024">
        <ele>9</ele>
        <time>2012-09-15T10:43:42Z</time>
      </trkpt>
      <trkpt lat="49.75462" lon="0.38024">
        <ele>9</ele>
        <time>2012-09-15T10:43:53Z</time>
      </trkpt>
      <trkpt lat="49.75487" lon="0.38029">
        <ele>9</ele>
        <time>2012-09-15T10:44:01Z</time>
      </trkpt>
      <trkpt lat="49.7549" lon="0.3803">
        <ele>9</ele>
        <time>2012-09-15T10:44:03Z</time>
      </trkpt>
      <trkpt lat="49.75499" lon="0.3803">
        <ele>10</ele>
        <time>2012-09-15T10:44:09Z</time>
      </trkpt>
      <trkpt lat="49.75503" lon="0.38026">
        <ele>10</ele>
        <time>2012-09-15T10:44:15Z</time>
      </trkpt>
      <trkpt lat="49.75508" lon="0.38019">
        <ele>11</ele>
        <time>2012-09-15T10:44:18Z</time>
      </trkpt>
      <trkpt lat="49.75498" lon="0.38032">
        <ele>12</ele>
        <time>2012-09-15T10:44:28Z</time>
      </trkpt>
      <trkpt lat="49.75498" lon="0.38032">
        <ele>12</ele>
        <time>2012-09-15T10:46:41Z</time>
      </trkpt>
      <trkpt lat="49.75498" lon="0.38032">
        <ele>11</ele>
        <time>2012-09-15T10:46:45Z</time>
      </trkpt>
      <trkpt lat="49.75517" lon="0.38007">
        <ele>11</ele>
        <time>2012-09-15T10:46:49Z</time>
      </trkpt>
      <trkpt lat="49.75523" lon="0.37997">
        <ele>11</ele>
        <time>2012-09-15T10:46:53Z</time>
      </trkpt>
      <trkpt lat="49.75522" lon="0.38">
        <ele>10</ele>
        <time>2012-09-15T10:47:06Z</time>
      </trkpt>
      <trkpt lat="49.75521" lon="0.38001">
        <ele>10</ele>
        <time>2012-09-15T10:47:07Z</time>
      </trkpt>
      <trkpt lat="49.75568" lon="0.37873">
        <ele>8</ele>
        <time>2012-09-15T10:47:22Z</time>
      </trkpt>
      <trkpt lat="49.75582" lon="0.37847">
        <ele>8</ele>
        <time>2012-09-15T10:47:32Z</time>
      </trkpt>
      <trkpt lat="49.75598" lon="0.37821">
        <ele>9</ele>
        <time>2012-09-15T10:47:50Z</time>
      </trkpt>
      <trkpt lat="49.75615" lon="0.37781">
        <ele>11</ele>
        <time>2012-09-15T10:48:03Z</time>
      </trkpt>
      <trkpt lat="49.75626" lon="0.37726">
        <ele>11</ele>
        <time>2012-09-15T10:48:18Z</time>
      </trkpt>
      <trkpt lat="49.75644" lon="0.37691">
        <ele>15</ele>
        <time>2012-09-15T10:48:28Z</time>
      </trkpt>
      <trkpt lat="49.75666" lon="0.37646">
        <ele>15</ele>
        <time>2012-09-15T10:48:41Z</time>
      </trkpt>
      <trkpt lat="49.75681" lon="0.3761">
        <ele>13</ele>
        <time>2012-09-15T10:48:51Z</time>
      </trkpt>
      <trkpt lat="49.75684" lon="0.37602">
        <ele>14</ele>
        <time>2012-09-15T10:48:54Z</time>
      </trkpt>
      <trkpt lat="49.75704" lon="0.37608">
        <ele>16</ele>
        <time>2012-09-15T10:49:05Z</time>
      </trkpt>
      <trkpt lat="49.75704" lon="0.37608">
        <ele>16</ele>
        <time>2012-09-15T10:49:51Z</time>
      </trkpt>
      <trkpt lat="49.75712" lon="0.37611">
        <ele>16</ele>
        <time>2012-09-15T10:49:58Z</time>
      </trkpt>
      <trkpt lat="49.75697" lon="0.37579">
        <ele>14</ele>
        <time>2012-09-15T10:50:09Z</time>
      </trkpt>
      <trkpt lat="49.75719" lon="0.37507">
        <ele>13</ele>
        <time>2012-09-15T10:50:24Z</time>
      </trkpt>
      <trkpt lat="49.75744" lon="0.37432">
        <ele>12</ele>
        <time>2012-09-15T10:50:40Z</time>
      </trkpt>
      <trkpt lat="49.75746" lon="0.37426">
        <ele>12</ele>
        <time>2012-09-15T10:50:41Z</time>
      </trkpt>
      <trkpt lat="49.7575" lon="0.37408">
        <ele>11</ele>
        <time>2012-09-15T10:50:44Z</time>
      </trkpt>
      <trkpt lat="49.75768" lon="0.37306">
        <ele>10</ele>
        <time>2012-09-15T10:51:02Z</time>
      </trkpt>
      <trkpt lat="49.7578" lon="0.37244">
        <ele>11</ele>
        <time>2012-09-15T10:51:14Z</time>
      </trkpt>
      <trkpt lat="49.75794" lon="0.37167">
        <ele>10</ele>
        <time>2012-09-15T10:51:28Z</time>
      </trkpt>
      <trkpt lat="49.7581" lon="0.37077">
        <ele>10</ele>
        <time>2012-09-15T10:51:44Z</time>
      </trkpt>
      <trkpt lat="49.75818" lon="0.37034">
        <ele>10</ele>
        <time>2012-09-15T10:51:52Z</time>
      </trkpt>
      <trkpt lat="49.75829" lon="0.36973">
        <ele>11</ele>
        <time>2012-09-15T10:52:03Z</time>
      </trkpt>
      <trkpt lat="49.75846" lon="0.36877">
        <ele>10</ele>
        <time>2012-09-15T10:52:20Z</time>
      </trkpt>
      <trkpt lat="49.75854" lon="0.36842">
        <ele>9</ele>
        <time>2012-09-15T10:52:31Z</time>
      </trkpt>
      <trkpt lat="49.75861" lon="0.36803">
        <ele>9</ele>
        <time>2012-09-15T10:52:47Z</time>
      </trkpt>
      <trkpt lat="49.75861" lon="0.36803">
        <ele>9</ele>
        <time>2012-09-15T10:53:17Z</time>
      </trkpt>
      <trkpt lat="49.75861" lon="0.36803">
        <ele>9</ele>
        <time>2012-09-15T10:54:20Z</time>
      </trkpt>
      <trkpt lat="49.75865" lon="0.36782">
        <ele>9</ele>
        <time>2012-09-15T10:54:25Z</time>
      </trkpt>
      <trkpt lat="49.75873" lon="0.36709">
        <ele>6</ele>
        <time>2012-09-15T10:54:42Z</time>
      </trkpt>
      <trkpt lat="49.75878" lon="0.36675">
        <ele>3</ele>
        <time>2012-09-15T10:54:51Z</time>
      </trkpt>
      <trkpt lat="49.75885" lon="0.36628">
        <ele>3</ele>
        <time>2012-09-15T10:54:59Z</time>
      </trkpt>
      <trkpt lat="49.75897" lon="0.36535">
        <ele>3</ele>
        <time>2012-09-15T10:55:13Z</time>
      </trkpt>
      <trkpt lat="49.759" lon="0.36513">
        <ele>2</ele>
        <time>2012-09-15T10:55:16Z</time>
      </trkpt>
      <trkpt lat="49.75909" lon="0.36455">
        <ele>-1</ele>
        <time>2012-09-15T10:55:24Z</time>
      </trkpt>
      <trkpt lat="49.75913" lon="0.36434">
        <ele>-1</ele>
        <time>2012-09-15T10:55:27Z</time>
      </trkpt>
      <trkpt lat="49.75927" lon="0.3636">
        <ele>-3</ele>
        <time>2012-09-15T10:55:37Z</time>
      </trkpt>
      <trkpt lat="49.75932" lon="0.36331">
        <ele>-3</ele>
        <time>2012-09-15T10:55:41Z</time>
      </trkpt>
      <trkpt lat="49.75936" lon="0.3631">
        <ele>-3</ele>
        <time>2012-09-15T10:55:44Z</time>
      </trkpt>
      <trkpt lat="49.75942" lon="0.36268">
        <ele>-4</ele>
        <time>2012-09-15T10:55:50Z</time>
      </trkpt>
      <trkpt lat="49.7596" lon="0.3617">
        <ele>-1</ele>
        <time>2012-09-15T10:56:06Z</time>
      </trkpt>
      <trkpt lat="49.75962" lon="0.36161">
        <ele>1</ele>
        <time>2012-09-15T10:56:10Z</time>
      </trkpt>
      <trkpt lat="49.75964" lon="0.36157">
        <ele>1</ele>
        <time>2012-09-15T10:56:15Z</time>
      </trkpt>
      <trkpt lat="49.75925" lon="0.36121">
        <ele>2</ele>
        <time>2012-09-15T10:56:31Z</time>
      </trkpt>
      <trkpt lat="49.75914" lon="0.36111">
        <ele>3</ele>
        <time>2012-09-15T10:56:41Z</time>
      </trkpt>
      <trkpt lat="49.75914" lon="0.36111">
        <ele>3</ele>
        <time>2012-09-15T10:56:58Z</time>
      </trkpt>
      <trkpt lat="49.75914" lon="0.36111">
        <ele>2</ele>
        <time>2012-09-15T11:00:27Z</time>
      </trkpt>
      <trkpt lat="49.75914" lon="0.36111">
        <ele>2</ele>
        <time>2012-09-15T11:00:38Z</time>
      </trkpt>
      <trkpt lat="49.75914" lon="0.36111">
        <ele>2</ele>
        <time>2012-09-15T11:00:42Z</time>
      </trkpt>
      <trkpt lat="49.75914" lon="0.36111">
        <ele>2</ele>
        <time>2012-09-15T11:00:51Z</time>
      </trkpt>
      <trkpt lat="49.75914" lon="0.36111">
        <ele>1</ele>
        <time>2012-09-15T11:00:58Z</time>
      </trkpt>
      <trkpt lat="49.75914" lon="0.36111">
        <ele>2</ele>
        <time>2012-09-15T11:01:22Z</time>
      </trkpt>
      <trkpt lat="49.75914" lon="0.36111">
        <ele>2</ele>
        <time>2012-09-15T11:02:00Z</time>
      </trkpt>
      <trkpt lat="49.7593" lon="0.36125">
        <ele>2</ele>
        <time>2012-09-15T11:02:03Z</time>
      </trkpt>
      <trkpt lat="49.75958" lon="0.3615">
        <ele>3</ele>
        <time>2012-09-15T11:02:20Z</time>
      </trkpt>
      <trkpt lat="49.7597" lon="0.36163">
        <ele>3</ele>
        <time>2012-09-15T11:02:27Z</time>
      </trkpt>
      <trkpt lat="49.76005" lon="0.36198">
        <ele>2</ele>
        <time>2012-09-15T11:02:46Z</time>
      </trkpt>
      <trkpt lat="49.76007" lon="0.362">
        <ele>2</ele>
        <time>2012-09-15T11:02:47Z</time>
      </trkpt>
      <trkpt lat="49.76033" lon="0.36228">
        <ele>2</ele>
        <time>2012-09-15T11:03:02Z</time>
      </trkpt>
      <trkpt lat="49.76071" lon="0.36264">
        <ele>1</ele>
        <time>2012-09-15T11:03:23Z</time>
      </trkpt>
      <trkpt lat="49.76101" lon="0.36294">
        <ele>1</ele>
        <time>2012-09-15T11:03:40Z</time>
      </trkpt>
      <trkpt lat="49.76128" lon="0.36323">
        <ele>1</ele>
        <time>2012-09-15T11:03:56Z</time>
      </trkpt>
      <trkpt lat="49.7616" lon="0.36354">
        <ele>2</ele>
        <time>2012-09-15T11:04:13Z</time>
      </trkpt>
      <trkpt lat="49.76188" lon="0.36379">
        <ele>3</ele>
        <time>2012-09-15T11:04:30Z</time>
      </trkpt>
      <trkpt lat="49.76189" lon="0.36379">
        <ele>3</ele>
        <time>2012-09-15T11:04:31Z</time>
      </trkpt>
      <trkpt lat="49.76217" lon="0.36386">
        <ele>3</ele>
        <time>2012-09-15T11:04:43Z</time>
      </trkpt>
      <trkpt lat="49.7622" lon="0.36386">
        <ele>3</ele>
        <time>2012-09-15T11:04:45Z</time>
      </trkpt>
      <trkpt lat="49.76221" lon="0.36386">
        <ele>2</ele>
        <time>2012-09-15T11:04:55Z</time>
      </trkpt>
      <trkpt lat="49.76221" lon="0.36386">
        <ele>3</ele>
        <time>2012-09-15T11:05:35Z</time>
      </trkpt>
      <trkpt lat="49.76221" lon="0.36386">
        <ele>3</ele>
        <time>2012-09-15T11:05:40Z</time>
      </trkpt>
      <trkpt lat="49.76195" lon="0.36388">
        <ele>4</ele>
        <time>2012-09-15T11:05:45Z</time>
      </trkpt>
      <trkpt lat="49.76244" lon="0.36398">
        <ele>2</ele>
        <time>2012-09-15T11:05:59Z</time>
      </trkpt>
      <trkpt lat="49.76246" lon="0.36399">
        <ele>2</ele>
        <time>2012-09-15T11:06:01Z</time>
      </trkpt>
      <trkpt lat="49.76246" lon="0.36399">
        <ele>3</ele>
        <time>2012-09-15T11:06:05Z</time>
      </trkpt>
      <trkpt lat="49.76218" lon="0.36386">
        <ele>1</ele>
        <time>2012-09-15T11:06:19Z</time>
      </trkpt>
      <trkpt lat="49.76218" lon="0.36386">
        <ele>1</ele>
        <time>2012-09-15T11:06:23Z</time>
      </trkpt>
      <trkpt lat="49.76197" lon="0.36388">
        <ele>2</ele>
        <time>2012-09-15T11:06:30Z</time>
      </trkpt>
      <trkpt lat="49.76162" lon="0.36472">
        <ele>2</ele>
        <time>2012-09-15T11:06:44Z</time>
      </trkpt>
      <trkpt lat="49.76139" lon="0.36526">
        <ele>2</ele>
        <time>2012-09-15T11:06:53Z</time>
      </trkpt>
      <trkpt lat="49.76123" lon="0.3656">
        <ele>1</ele>
        <time>2012-09-15T11:07:00Z</time>
      </trkpt>
      <trkpt lat="49.76098" lon="0.36616">
        <ele>4</ele>
        <time>2012-09-15T11:07:14Z</time>
      </trkpt>
      <trkpt lat="49.76098" lon="0.36616">
        <ele>4</ele>
        <time>2012-09-15T11:08:34Z</time>
      </trkpt>
      <trkpt lat="49.76098" lon="0.36616">
        <ele>4</ele>
        <time>2012-09-15T11:09:30Z</time>
      </trkpt>
      <trkpt lat="49.76098" lon="0.36616">
        <ele>3</ele>
        <time>2012-09-15T11:09:49Z</time>
      </trkpt>
      <trkpt lat="49.76082" lon="0.36669">
        <ele>4</ele>
        <time>2012-09-15T11:10:03Z</time>
      </trkpt>
      <trkpt lat="49.76074" lon="0.36687">
        <ele>3</ele>
        <time>2012-09-15T11:10:07Z</time>
      </trkpt>
      <trkpt lat="49.76072" lon="0.36711">
        <ele>3</ele>
        <time>2012-09-15T11:10:10Z</time>
      </trkpt>
      <trkpt lat="49.76061" lon="0.36737">
        <ele>3</ele>
        <time>2012-09-15T11:10:14Z</time>
      </trkpt>
      <trkpt lat="49.76039" lon="0.36822">
        <ele>2</ele>
        <time>2012-09-15T11:10:28Z</time>
      </trkpt>
      <trkpt lat="49.76018" lon="0.36903">
        <ele>5</ele>
        <time>2012-09-15T11:10:42Z</time>
      </trkpt>
      <trkpt lat="49.76011" lon="0.36931">
        <ele>1</ele>
        <time>2012-09-15T11:10:49Z</time>
      </trkpt>
      <trkpt lat="49.76009" lon="0.3694">
        <ele>1</ele>
        <time>2012-09-15T11:10:51Z</time>
      </trkpt>
      <trkpt lat="49.76008" lon="0.36946">
        <ele>1</ele>
        <time>2012-09-15T11:11:02Z</time>
      </trkpt>
      <trkpt lat="49.76008" lon="0.36946">
        <ele>1</ele>
        <time>2012-09-15T11:11:10Z</time>
      </trkpt>
      <trkpt lat="49.76006" lon="0.36954">
        <ele>1</ele>
        <time>2012-09-15T11:11:15Z</time>
      </trkpt>
      <trkpt lat="49.75988" lon="0.37017">
        <ele>-1</ele>
        <time>2012-09-15T11:11:28Z</time>
      </trkpt>
      <trkpt lat="49.75984" lon="0.37033">
        <ele>-1</ele>
        <time>2012-09-15T11:11:31Z</time>
      </trkpt>
      <trkpt lat="49.75977" lon="0.37063">
        <ele>-1</ele>
        <time>2012-09-15T11:11:36Z</time>
      </trkpt>
      <trkpt lat="49.75973" lon="0.37081">
        <ele>-1</ele>
        <time>2012-09-15T11:11:39Z</time>
      </trkpt>
      <trkpt lat="49.75969" lon="0.371">
        <ele>5</ele>
        <time>2012-09-15T11:11:42Z</time>
      </trkpt>
      <trkpt lat="49.75954" lon="0.37162">
        <ele>4.7</ele>
        <time>2012-09-15T11:11:53Z</time>
      </trkpt>
      <trkpt lat="49.75948" lon="0.37187">
        <ele>4.8</ele>
        <time>2012-09-15T11:11:57Z</time>
      </trkpt>
      <trkpt lat="49.75929" lon="0.37286">
        <ele>6</ele>
        <time>2012-09-15T11:12:14Z</time>
      </trkpt>
      <trkpt lat="49.75921" lon="0.37306">
        <ele>1</ele>
        <time>2012-09-15T11:12:19Z</time>
      </trkpt>
      <trkpt lat="49.75916" lon="0.37319">
        <ele>6.5</ele>
        <time>2012-09-15T11:12:22Z</time>
      </trkpt>
      <trkpt lat="49.75902" lon="0.37387">
        <ele>1</ele>
        <time>2012-09-15T11:12:38Z</time>
      </trkpt>
      <trkpt lat="49.75885" lon="0.37458">
        <ele>2</ele>
        <time>2012-09-15T11:12:55Z</time>
      </trkpt>
      <trkpt lat="49.75873" lon="0.37508">
        <ele>2</ele>
        <time>2012-09-15T11:13:08Z</time>
      </trkpt>
      <trkpt lat="49.75853" lon="0.37602">
        <ele>4</ele>
        <time>2012-09-15T11:13:31Z</time>
      </trkpt>
      <trkpt lat="49.75834" lon="0.3767">
        <ele>7</ele>
        <time>2012-09-15T11:13:50Z</time>
      </trkpt>
      <trkpt lat="49.75821" lon="0.37678">
        <ele>9</ele>
        <time>2012-09-15T11:13:56Z</time>
      </trkpt>
      <trkpt lat="49.75817" lon="0.37699">
        <ele>10</ele>
        <time>2012-09-15T11:14:01Z</time>
      </trkpt>
      <trkpt lat="49.75817" lon="0.37713">
        <ele>9</ele>
        <time>2012-09-15T11:14:05Z</time>
      </trkpt>
      <trkpt lat="49.7581" lon="0.37734">
        <ele>10</ele>
        <time>2012-09-15T11:14:12Z</time>
      </trkpt>
      <trkpt lat="49.75796" lon="0.37774">
        <ele>10</ele>
        <time>2012-09-15T11:14:25Z</time>
      </trkpt>
      <trkpt lat="49.75798" lon="0.37833">
        <ele>11</ele>
        <time>2012-09-15T11:14:38Z</time>
      </trkpt>
      <trkpt lat="49.75797" lon="0.37911">
        <ele>10</ele>
        <time>2012-09-15T11:14:55Z</time>
      </trkpt>
      <trkpt lat="49.75783" lon="0.37975">
        <ele>8</ele>
        <time>2012-09-15T11:15:08Z</time>
      </trkpt>
      <trkpt lat="49.75778" lon="0.38005">
        <ele>9</ele>
        <time>2012-09-15T11:15:14Z</time>
      </trkpt>
      <trkpt lat="49.75775" lon="0.38014">
        <ele>9</ele>
        <time>2012-09-15T11:15:16Z</time>
      </trkpt>
      <trkpt lat="49.7577" lon="0.38033">
        <ele>8</ele>
        <time>2012-09-15T11:15:19Z</time>
      </trkpt>
      <trkpt lat="49.75743" lon="0.3809">
        <ele>6</ele>
        <time>2012-09-15T11:15:28Z</time>
      </trkpt>
      <trkpt lat="49.75705" lon="0.38105">
        <ele>6</ele>
        <time>2012-09-15T11:15:38Z</time>
      </trkpt>
      <trkpt lat="49.75692" lon="0.38113">
        <ele>5</ele>
        <time>2012-09-15T11:15:43Z</time>
      </trkpt>
      <trkpt lat="49.75631" lon="0.38067">
        <ele>7</ele>
        <time>2012-09-15T11:15:59Z</time>
      </trkpt>
      <trkpt lat="49.756" lon="0.38037">
        <ele>9</ele>
        <time>2012-09-15T11:16:14Z</time>
      </trkpt>
      <trkpt lat="49.75596" lon="0.38033">
        <ele>9</ele>
        <time>2012-09-15T11:16:16Z</time>
      </trkpt>
      <trkpt lat="49.75585" lon="0.38022">
        <ele>10</ele>
        <time>2012-09-15T11:16:27Z</time>
      </trkpt>
      <trkpt lat="49.75576" lon="0.38013">
        <ele>8</ele>
        <time>2012-09-15T11:16:34Z</time>
      </trkpt>
      <trkpt lat="49.75561" lon="0.38043">
        <ele>9</ele>
        <time>2012-09-15T11:16:38Z</time>
      </trkpt>
      <trkpt lat="49.75561" lon="0.38053">
        <ele>8</ele>
        <time>2012-09-15T11:16:42Z</time>
      </trkpt>
      <trkpt lat="49.75563" lon="0.38052">
        <ele>7</ele>
        <time>2012-09-15T11:16:48Z</time>
      </trkpt>
      <trkpt lat="49.75561" lon="0.38046">
        <ele>8</ele>
        <time>2012-09-15T11:16:50Z</time>
      </trkpt>
      <trkpt lat="49.75555" lon="0.38017">
        <ele>7</ele>
        <time>2012-09-15T11:16:59Z</time>
      </trkpt>
      <trkpt lat="49.75535" lon="0.38008">
        <ele>6</ele>
        <time>2012-09-15T11:17:11Z</time>
      </trkpt>
      <trkpt lat="49.75507" lon="0.38047">
        <ele>8</ele>
        <time>2012-09-15T11:17:25Z</time>
      </trkpt>
      <trkpt lat="49.75503" lon="0.3808">
        <ele>8</ele>
        <time>2012-09-15T11:17:37Z</time>
      </trkpt>
      <trkpt lat="49.75502" lon="0.3808">
        <ele>8</ele>
        <time>2012-09-15T11:17:39Z</time>
      </trkpt>
      <trkpt lat="49.75503" lon="0.38141">
        <ele>6</ele>
        <time>2012-09-15T11:17:52Z</time>
      </trkpt>
      <trkpt lat="49.75473" lon="0.38218">
        <ele>10</ele>
        <time>2012-09-15T11:18:05Z</time>
      </trkpt>
      <trkpt lat="49.7546" lon="0.38263">
        <ele>7</ele>
        <time>2012-09-15T11:18:11Z</time>
      </trkpt>
      <trkpt lat="49.7545" lon="0.38293">
        <ele>6</ele>
        <time>2012-09-15T11:18:14Z</time>
      </trkpt>
      <trkpt lat="49.75441" lon="0.38325">
        <ele>6</ele>
        <time>2012-09-15T11:18:18Z</time>
      </trkpt>
      <trkpt lat="49.75433" lon="0.38356">
        <ele>6</ele>
        <time>2012-09-15T11:18:23Z</time>
      </trkpt>
      <trkpt lat="49.75418" lon="0.38412">
        <ele>6</ele>
        <time>2012-09-15T11:18:33Z</time>
      </trkpt>
      <trkpt lat="49.7539" lon="0.38511">
        <ele>5</ele>
        <time>2012-09-15T11:18:51Z</time>
      </trkpt>
      <trkpt lat="49.75364" lon="0.38597">
        <ele>7</ele>
        <time>2012-09-15T11:19:08Z</time>
      </trkpt>
      <trkpt lat="49.75351" lon="0.38669">
        <ele>11</ele>
        <time>2012-09-15T11:19:24Z</time>
      </trkpt>
      <trkpt lat="49.75337" lon="0.38756">
        <ele>12</ele>
        <time>2012-09-15T11:19:43Z</time>
      </trkpt>
      <trkpt lat="49.75322" lon="0.38855">
        <ele>12</ele>
        <time>2012-09-15T11:20:04Z</time>
      </trkpt>
      <trkpt lat="49.75303" lon="0.3898">
        <ele>12</ele>
        <time>2012-09-15T11:20:28Z</time>
      </trkpt>
      <trkpt lat="49.7528" lon="0.39128">
        <ele>10</ele>
        <time>2012-09-15T11:20:55Z</time>
      </trkpt>
      <trkpt lat="49.75264" lon="0.39245">
        <ele>10</ele>
        <time>2012-09-15T11:21:16Z</time>
      </trkpt>
      <trkpt lat="49.75242" lon="0.39382">
        <ele>11</ele>
        <time>2012-09-15T11:21:39Z</time>
      </trkpt>
      <trkpt lat="49.75236" lon="0.39419">
        <ele>11</ele>
        <time>2012-09-15T11:21:49Z</time>
      </trkpt>
      <trkpt lat="49.75228" lon="0.39473">
        <ele>11</ele>
        <time>2012-09-15T11:21:59Z</time>
      </trkpt>
      <trkpt lat="49.7522" lon="0.39476">
        <ele>12</ele>
        <time>2012-09-15T11:22:04Z</time>
      </trkpt>
      <trkpt lat="49.75221" lon="0.39477">
        <ele>12</ele>
        <time>2012-09-15T11:22:23Z</time>
      </trkpt>
      <trkpt lat="49.75225" lon="0.39495">
        <ele>13</ele>
        <time>2012-09-15T11:22:28Z</time>
      </trkpt>
      <trkpt lat="49.75207" lon="0.3961">
        <ele>11</ele>
        <time>2012-09-15T11:22:46Z</time>
      </trkpt>
      <trkpt lat="49.75188" lon="0.39738">
        <ele>9</ele>
        <time>2012-09-15T11:23:03Z</time>
      </trkpt>
      <trkpt lat="49.7517" lon="0.39849">
        <ele>8</ele>
        <time>2012-09-15T11:23:17Z</time>
      </trkpt>
      <trkpt lat="49.75157" lon="0.39927">
        <ele>8</ele>
        <time>2012-09-15T11:23:27Z</time>
      </trkpt>
      <trkpt lat="49.75131" lon="0.40095">
        <ele>7</ele>
        <time>2012-09-15T11:23:47Z</time>
      </trkpt>
      <trkpt lat="49.75127" lon="0.4012">
        <ele>7</ele>
        <time>2012-09-15T11:23:50Z</time>
      </trkpt>
      <trkpt lat="49.75107" lon="0.40252">
        <ele>6</ele>
        <time>2012-09-15T11:24:05Z</time>
      </trkpt>
      <trkpt lat="49.75091" lon="0.40304">
        <ele>6</ele>
        <time>2012-09-15T11:24:15Z</time>
      </trkpt>
      <trkpt lat="49.75086" lon="0.40313">
        <ele>7</ele>
        <time>2012-09-15T11:24:20Z</time>
      </trkpt>
      <trkpt lat="49.75079" lon="0.40353">
        <ele>8</ele>
        <time>2012-09-15T11:24:27Z</time>
      </trkpt>
      <trkpt lat="49.75084" lon="0.40353">
        <ele>8</ele>
        <time>2012-09-15T11:24:30Z</time>
      </trkpt>
      <trkpt lat="49.75099" lon="0.40368">
        <ele>7</ele>
        <time>2012-09-15T11:24:36Z</time>
      </trkpt>
      <trkpt lat="49.75131" lon="0.4055">
        <ele>6</ele>
        <time>2012-09-15T11:24:59Z</time>
      </trkpt>
      <trkpt lat="49.7516" lon="0.40707">
        <ele>4</ele>
        <time>2012-09-15T11:25:19Z</time>
      </trkpt>
      <trkpt lat="49.75163" lon="0.40715">
        <ele>4</ele>
        <time>2012-09-15T11:25:20Z</time>
      </trkpt>
      <trkpt lat="49.75208" lon="0.4079">
        <ele>5</ele>
        <time>2012-09-15T11:25:34Z</time>
      </trkpt>
      <trkpt lat="49.75217" lon="0.40804">
        <ele>5</ele>
        <time>2012-09-15T11:25:37Z</time>
      </trkpt>
      <trkpt lat="49.75225" lon="0.40855">
        <ele>5</ele>
        <time>2012-09-15T11:25:49Z</time>
      </trkpt>
      <trkpt lat="49.75201" lon="0.40998">
        <ele>4</ele>
        <time>2012-09-15T11:26:08Z</time>
      </trkpt>
      <trkpt lat="49.75198" lon="0.41011">
        <ele>4</ele>
        <time>2012-09-15T11:26:10Z</time>
      </trkpt>
      <trkpt lat="49.75175" lon="0.41106">
        <ele>3</ele>
        <time>2012-09-15T11:26:26Z</time>
      </trkpt>
      <trkpt lat="49.75156" lon="0.41233">
        <ele>4</ele>
        <time>2012-09-15T11:26:45Z</time>
      </trkpt>
      <trkpt lat="49.75139" lon="0.41313">
        <ele>7</ele>
        <time>2012-09-15T11:26:59Z</time>
      </trkpt>
      <trkpt lat="49.75135" lon="0.41347">
        <ele>8</ele>
        <time>2012-09-15T11:27:06Z</time>
      </trkpt>
      <trkpt lat="49.7512" lon="0.41409">
        <ele>10</ele>
        <time>2012-09-15T11:27:19Z</time>
      </trkpt>
      <trkpt lat="49.75089" lon="0.41485">
        <ele>13</ele>
        <time>2012-09-15T11:27:35Z</time>
      </trkpt>
      <trkpt lat="49.7506" lon="0.41548">
        <ele>12</ele>
        <time>2012-09-15T11:27:50Z</time>
      </trkpt>
      <trkpt lat="49.75036" lon="0.41628">
        <ele>12</ele>
        <time>2012-09-15T11:27:59Z</time>
      </trkpt>
      <trkpt lat="49.75035" lon="0.41722">
        <ele>10</ele>
        <time>2012-09-15T11:28:10Z</time>
      </trkpt>
      <trkpt lat="49.75056" lon="0.41889">
        <ele>8</ele>
        <time>2012-09-15T11:28:30Z</time>
      </trkpt>
      <trkpt lat="49.75046" lon="0.42026">
        <ele>8</ele>
        <time>2012-09-15T11:28:46Z</time>
      </trkpt>
      <trkpt lat="49.75043" lon="0.42041">
        <ele>7</ele>
        <time>2012-09-15T11:28:48Z</time>
      </trkpt>
      <trkpt lat="49.75037" lon="0.42062">
        <ele>8</ele>
        <time>2012-09-15T11:28:51Z</time>
      </trkpt>
      <trkpt lat="49.75012" lon="0.42181">
        <ele>10</ele>
        <time>2012-09-15T11:29:09Z</time>
      </trkpt>
      <trkpt lat="49.75008" lon="0.42322">
        <ele>10</ele>
        <time>2012-09-15T11:29:30Z</time>
      </trkpt>
      <trkpt lat="49.75011" lon="0.42513">
        <ele>11</ele>
        <time>2012-09-15T11:29:57Z</time>
      </trkpt>
      <trkpt lat="49.74993" lon="0.42632">
        <ele>13</ele>
        <time>2012-09-15T11:30:16Z</time>
      </trkpt>
      <trkpt lat="49.74976" lon="0.42715">
        <ele>13</ele>
        <time>2012-09-15T11:30:31Z</time>
      </trkpt>
      <trkpt lat="49.74971" lon="0.42744">
        <ele>11</ele>
        <time>2012-09-15T11:30:36Z</time>
      </trkpt>
      <trkpt lat="49.74969" lon="0.42763">
        <ele>11</ele>
        <time>2012-09-15T11:30:39Z</time>
      </trkpt>
      <trkpt lat="49.74957" lon="0.42859">
        <ele>8</ele>
        <time>2012-09-15T11:30:53Z</time>
      </trkpt>
      <trkpt lat="49.74938" lon="0.43047">
        <ele>13</ele>
        <time>2012-09-15T11:31:15Z</time>
      </trkpt>
      <trkpt lat="49.74924" lon="0.4321">
        <ele>14</ele>
        <time>2012-09-15T11:31:34Z</time>
      </trkpt>
      <trkpt lat="49.74914" lon="0.43349">
        <ele>14</ele>
        <time>2012-09-15T11:31:54Z</time>
      </trkpt>
      <trkpt lat="49.7493" lon="0.43463">
        <ele>13</ele>
        <time>2012-09-15T11:32:10Z</time>
      </trkpt>
      <trkpt lat="49.74973" lon="0.43614">
        <ele>13</ele>
        <time>2012-09-15T11:32:32Z</time>
      </trkpt>
      <trkpt lat="49.74983" lon="0.43774">
        <ele>16</ele>
        <time>2012-09-15T11:32:54Z</time>
      </trkpt>
      <trkpt lat="49.74973" lon="0.43919">
        <ele>16</ele>
        <time>2012-09-15T11:33:13Z</time>
      </trkpt>
      <trkpt lat="49.74963" lon="0.44066">
        <ele>16</ele>
        <time>2012-09-15T11:33:31Z</time>
      </trkpt>
      <trkpt lat="49.74962" lon="0.44187">
        <ele>19</ele>
        <time>2012-09-15T11:33:51Z</time>
      </trkpt>
      <trkpt lat="49.74972" lon="0.4428">
        <ele>22</ele>
        <time>2012-09-15T11:34:13Z</time>
      </trkpt>
      <trkpt lat="49.74982" lon="0.44362">
        <ele>23</ele>
        <time>2012-09-15T11:34:32Z</time>
      </trkpt>
      <trkpt lat="49.74989" lon="0.44431">
        <ele>25</ele>
        <time>2012-09-15T11:34:48Z</time>
      </trkpt>
      <trkpt lat="49.74985" lon="0.44519">
        <ele>28</ele>
        <time>2012-09-15T11:35:07Z</time>
      </trkpt>
      <trkpt lat="49.74976" lon="0.44602">
        <ele>28</ele>
        <time>2012-09-15T11:35:27Z</time>
      </trkpt>
      <trkpt lat="49.74959" lon="0.44672">
        <ele>31</ele>
        <time>2012-09-15T11:35:45Z</time>
      </trkpt>
      <trkpt lat="49.74935" lon="0.44743">
        <ele>31</ele>
        <time>2012-09-15T11:36:03Z</time>
      </trkpt>
      <trkpt lat="49.74904" lon="0.44832">
        <ele>28</ele>
        <time>2012-09-15T11:36:15Z</time>
      </trkpt>
      <trkpt lat="49.74903" lon="0.4487">
        <ele>28</ele>
        <time>2012-09-15T11:36:19Z</time>
      </trkpt>
      <trkpt lat="49.74898" lon="0.44915">
        <ele>29</ele>
        <time>2012-09-15T11:36:30Z</time>
      </trkpt>
      <trkpt lat="49.74895" lon="0.44944">
        <ele>30</ele>
        <time>2012-09-15T11:36:40Z</time>
      </trkpt>
      <trkpt lat="49.74893" lon="0.44951">
        <ele>31</ele>
        <time>2012-09-15T11:36:43Z</time>
      </trkpt>
      <trkpt lat="49.74895" lon="0.45">
        <ele>33</ele>
        <time>2012-09-15T11:37:04Z</time>
      </trkpt>
      <trkpt lat="49.74898" lon="0.45015">
        <ele>34</ele>
        <time>2012-09-15T11:37:10Z</time>
      </trkpt>
      <trkpt lat="49.74899" lon="0.45025">
        <ele>34</ele>
        <time>2012-09-15T11:37:14Z</time>
      </trkpt>
      <trkpt lat="49.749" lon="0.45037">
        <ele>34</ele>
        <time>2012-09-15T11:37:19Z</time>
      </trkpt>
      <trkpt lat="49.749" lon="0.45044">
        <ele>34</ele>
        <time>2012-09-15T11:37:22Z</time>
      </trkpt>
      <trkpt lat="49.74901" lon="0.45056">
        <ele>35</ele>
        <time>2012-09-15T11:37:28Z</time>
      </trkpt>
      <trkpt lat="49.74903" lon="0.45072">
        <ele>35</ele>
        <time>2012-09-15T11:37:36Z</time>
      </trkpt>
      <trkpt lat="49.74904" lon="0.45077">
        <ele>35</ele>
        <time>2012-09-15T11:37:38Z</time>
      </trkpt>
      <trkpt lat="49.74907" lon="0.45089">
        <ele>36</ele>
        <time>2012-09-15T11:37:44Z</time>
      </trkpt>
      <trkpt lat="49.74908" lon="0.45093">
        <ele>36</ele>
        <time>2012-09-15T11:37:46Z</time>
      </trkpt>
      <trkpt lat="49.74917" lon="0.45133">
        <ele>36</ele>
        <time>2012-09-15T11:38:03Z</time>
      </trkpt>
      <trkpt lat="49.74918" lon="0.45136">
        <ele>36</ele>
        <time>2012-09-15T11:38:04Z</time>
      </trkpt>
      <trkpt lat="49.74921" lon="0.45151">
        <ele>37</ele>
        <time>2012-09-15T11:38:10Z</time>
      </trkpt>
      <trkpt lat="49.74931" lon="0.45193">
        <ele>39</ele>
        <time>2012-09-15T11:38:27Z</time>
      </trkpt>
      <trkpt lat="49.74934" lon="0.45207">
        <ele>39</ele>
        <time>2012-09-15T11:38:32Z</time>
      </trkpt>
      <trkpt lat="49.74935" lon="0.45213">
        <ele>39</ele>
        <time>2012-09-15T11:38:34Z</time>
      </trkpt>
      <trkpt lat="49.74938" lon="0.45223">
        <ele>39</ele>
        <time>2012-09-15T11:38:38Z</time>
      </trkpt>
      <trkpt lat="49.7494" lon="0.45233">
        <ele>39</ele>
        <time>2012-09-15T11:38:42Z</time>
      </trkpt>
      <trkpt lat="49.74945" lon="0.45252">
        <ele>40</ele>
        <time>2012-09-15T11:38:50Z</time>
      </trkpt>
      <trkpt lat="49.74948" lon="0.45265">
        <ele>41</ele>
        <time>2012-09-15T11:38:55Z</time>
      </trkpt>
      <trkpt lat="49.74949" lon="0.45273">
        <ele>41</ele>
        <time>2012-09-15T11:38:58Z</time>
      </trkpt>
      <trkpt lat="49.74957" lon="0.45309">
        <ele>41</ele>
        <time>2012-09-15T11:39:12Z</time>
      </trkpt>
      <trkpt lat="49.74966" lon="0.45349">
        <ele>43</ele>
        <time>2012-09-15T11:39:28Z</time>
      </trkpt>
      <trkpt lat="49.74966" lon="0.45354">
        <ele>43</ele>
        <time>2012-09-15T11:39:30Z</time>
      </trkpt>
      <trkpt lat="49.74998" lon="0.45335">
        <ele>44</ele>
        <time>2012-09-15T11:39:45Z</time>
      </trkpt>
      <trkpt lat="49.75015" lon="0.4533">
        <ele>46</ele>
        <time>2012-09-15T11:39:54Z</time>
      </trkpt>
      <trkpt lat="49.75018" lon="0.45325">
        <ele>46</ele>
        <time>2012-09-15T11:39:57Z</time>
      </trkpt>
      <trkpt lat="49.75025" lon="0.4532">
        <ele>47</ele>
        <time>2012-09-15T11:40:02Z</time>
      </trkpt>
      <trkpt lat="49.75048" lon="0.45289">
        <ele>51</ele>
        <time>2012-09-15T11:40:22Z</time>
      </trkpt>
      <trkpt lat="49.75059" lon="0.45267">
        <ele>53</ele>
        <time>2012-09-15T11:40:33Z</time>
      </trkpt>
      <trkpt lat="49.7506" lon="0.45261">
        <ele>54</ele>
        <time>2012-09-15T11:40:36Z</time>
      </trkpt>
      <trkpt lat="49.75067" lon="0.45253">
        <ele>55</ele>
        <time>2012-09-15T11:40:42Z</time>
      </trkpt>
      <trkpt lat="49.75074" lon="0.4524">
        <ele>56</ele>
        <time>2012-09-15T11:40:50Z</time>
      </trkpt>
      <trkpt lat="49.75082" lon="0.45231">
        <ele>57</ele>
        <time>2012-09-15T11:40:58Z</time>
      </trkpt>
      <trkpt lat="49.75087" lon="0.45227">
        <ele>58</ele>
        <time>2012-09-15T11:41:03Z</time>
      </trkpt>
      <trkpt lat="49.7509" lon="0.45223">
        <ele>58</ele>
        <time>2012-09-15T11:41:07Z</time>
      </trkpt>
      <trkpt lat="49.75093" lon="0.45222">
        <ele>58</ele>
        <time>2012-09-15T11:41:10Z</time>
      </trkpt>
      <trkpt lat="49.75102" lon="0.45215">
        <ele>59</ele>
        <time>2012-09-15T11:41:19Z</time>
      </trkpt>
      <trkpt lat="49.75107" lon="0.4521">
        <ele>60</ele>
        <time>2012-09-15T11:41:24Z</time>
      </trkpt>
      <trkpt lat="49.75131" lon="0.45212">
        <ele>64</ele>
        <time>2012-09-15T11:41:40Z</time>
      </trkpt>
      <trkpt lat="49.75155" lon="0.45221">
        <ele>71</ele>
        <time>2012-09-15T11:41:55Z</time>
      </trkpt>
      <trkpt lat="49.7516" lon="0.45224">
        <ele>73</ele>
        <time>2012-09-15T11:41:59Z</time>
      </trkpt>
      <trkpt lat="49.7518" lon="0.45238">
        <ele>82</ele>
        <time>2012-09-15T11:42:14Z</time>
      </trkpt>
      <trkpt lat="49.75184" lon="0.4526">
        <ele>86</ele>
        <time>2012-09-15T11:42:21Z</time>
      </trkpt>
      <trkpt lat="49.75185" lon="0.45284">
        <ele>88</ele>
        <time>2012-09-15T11:42:26Z</time>
      </trkpt>
      <trkpt lat="49.7519" lon="0.45295">
        <ele>91</ele>
        <time>2012-09-15T11:42:31Z</time>
      </trkpt>
      <trkpt lat="49.75194" lon="0.45307">
        <ele>93</ele>
        <time>2012-09-15T11:42:36Z</time>
      </trkpt>
      <trkpt lat="49.75199" lon="0.45333">
        <ele>96</ele>
        <time>2012-09-15T11:42:45Z</time>
      </trkpt>
      <trkpt lat="49.75201" lon="0.45339">
        <ele>98</ele>
        <time>2012-09-15T11:42:49Z</time>
      </trkpt>
      <trkpt lat="49.75205" lon="0.45345">
        <ele>100</ele>
        <time>2012-09-15T11:42:55Z</time>
      </trkpt>
      <trkpt lat="49.75208" lon="0.45353">
        <ele>101</ele>
        <time>2012-09-15T11:42:58Z</time>
      </trkpt>
      <trkpt lat="49.75212" lon="0.45357">
        <ele>101</ele>
        <time>2012-09-15T11:43:01Z</time>
      </trkpt>
      <trkpt lat="49.75221" lon="0.45365">
        <ele>103</ele>
        <time>2012-09-15T11:43:10Z</time>
      </trkpt>
      <trkpt lat="49.75237" lon="0.45369">
        <ele>107</ele>
        <time>2012-09-15T11:43:19Z</time>
      </trkpt>
      <trkpt lat="49.75255" lon="0.45385">
        <ele>114</ele>
        <time>2012-09-15T11:43:33Z</time>
      </trkpt>
      <trkpt lat="49.75262" lon="0.4539">
        <ele>116</ele>
        <time>2012-09-15T11:43:38Z</time>
      </trkpt>
      <trkpt lat="49.75296" lon="0.45405">
        <ele>127</ele>
        <time>2012-09-15T11:43:58Z</time>
      </trkpt>
      <trkpt lat="49.75302" lon="0.4541">
        <ele>128</ele>
        <time>2012-09-15T11:44:01Z</time>
      </trkpt>
      <trkpt lat="49.75333" lon="0.45408">
        <ele>118</ele>
        <time>2012-09-15T11:44:21Z</time>
      </trkpt>
      <trkpt lat="49.75363" lon="0.45397">
        <ele>112</ele>
        <time>2012-09-15T11:44:37Z</time>
      </trkpt>
      <trkpt lat="49.75388" lon="0.45386">
        <ele>109</ele>
        <time>2012-09-15T11:44:50Z</time>
      </trkpt>
      <trkpt lat="49.75429" lon="0.4536">
        <ele>106</ele>
        <time>2012-09-15T11:45:08Z</time>
      </trkpt>
      <trkpt lat="49.75465" lon="0.45328">
        <ele>106</ele>
        <time>2012-09-15T11:45:24Z</time>
      </trkpt>
      <trkpt lat="49.75519" lon="0.45275">
        <ele>108</ele>
        <time>2012-09-15T11:45:47Z</time>
      </trkpt>
      <trkpt lat="49.75537" lon="0.45298">
        <ele>110</ele>
        <time>2012-09-15T11:45:58Z</time>
      </trkpt>
      <trkpt lat="49.75547" lon="0.45329">
        <ele>111</ele>
        <time>2012-09-15T11:46:07Z</time>
      </trkpt>
      <trkpt lat="49.75549" lon="0.45366">
        <ele>114</ele>
        <time>2012-09-15T11:46:15Z</time>
      </trkpt>
      <trkpt lat="49.75552" lon="0.45388">
        <ele>116</ele>
        <time>2012-09-15T11:46:19Z</time>
      </trkpt>
      <trkpt lat="49.75558" lon="0.45394">
        <ele>118</ele>
        <time>2012-09-15T11:46:23Z</time>
      </trkpt>
      <trkpt lat="49.75561" lon="0.45393">
        <ele>120</ele>
        <time>2012-09-15T11:46:26Z</time>
      </trkpt>
      <trkpt lat="49.75557" lon="0.45394">
        <ele>122</ele>
        <time>2012-09-15T11:46:30Z</time>
      </trkpt>
      <trkpt lat="49.75555" lon="0.45384">
        <ele>124</ele>
        <time>2012-09-15T11:46:34Z</time>
      </trkpt>
      <trkpt lat="49.75553" lon="0.45356">
        <ele>127</ele>
        <time>2012-09-15T11:46:42Z</time>
      </trkpt>
      <trkpt lat="49.7555" lon="0.45338">
        <ele>128</ele>
        <time>2012-09-15T11:46:46Z</time>
      </trkpt>
      <trkpt lat="49.75538" lon="0.45277">
        <ele>129</ele>
        <time>2012-09-15T11:46:57Z</time>
      </trkpt>
      <trkpt lat="49.75527" lon="0.45265">
        <ele>127</ele>
        <time>2012-09-15T11:47:02Z</time>
      </trkpt>
      <trkpt lat="49.75545" lon="0.4524">
        <ele>128</ele>
        <time>2012-09-15T11:47:15Z</time>
      </trkpt>
      <trkpt lat="49.75552" lon="0.45232">
        <ele>127</ele>
        <time>2012-09-15T11:47:18Z</time>
      </trkpt>
      <trkpt lat="49.75564" lon="0.4523">
        <ele>126</ele>
        <time>2012-09-15T11:47:22Z</time>
      </trkpt>
      <trkpt lat="49.75572" lon="0.45237">
        <ele>125</ele>
        <time>2012-09-15T11:47:26Z</time>
      </trkpt>
      <trkpt lat="49.75583" lon="0.45223">
        <ele>122</ele>
        <time>2012-09-15T11:47:32Z</time>
      </trkpt>
      <trkpt lat="49.75618" lon="0.45185">
        <ele>115</ele>
        <time>2012-09-15T11:47:50Z</time>
      </trkpt>
      <trkpt lat="49.75633" lon="0.4517">
        <ele>115</ele>
        <time>2012-09-15T11:47:59Z</time>
      </trkpt>
      <trkpt lat="49.7566" lon="0.45133">
        <ele>112</ele>
        <time>2012-09-15T11:48:13Z</time>
      </trkpt>
      <trkpt lat="49.75677" lon="0.45162">
        <ele>111</ele>
        <time>2012-09-15T11:48:24Z</time>
      </trkpt>
      <trkpt lat="49.75679" lon="0.45177">
        <ele>110</ele>
        <time>2012-09-15T11:48:29Z</time>
      </trkpt>
      <trkpt lat="49.75685" lon="0.45177">
        <ele>108</ele>
        <time>2012-09-15T11:48:39Z</time>
      </trkpt>
      <trkpt lat="49.75685" lon="0.45177">
        <ele>108</ele>
        <time>2012-09-15T11:48:40Z</time>
      </trkpt>
      <trkpt lat="49.75691" lon="0.45171">
        <ele>108</ele>
        <time>2012-09-15T11:48:46Z</time>
      </trkpt>
      <trkpt lat="49.75695" lon="0.45172">
        <ele>108</ele>
        <time>2012-09-15T11:48:48Z</time>
      </trkpt>
      <trkpt lat="49.75709" lon="0.45167">
        <ele>107</ele>
        <time>2012-09-15T11:48:55Z</time>
      </trkpt>
      <trkpt lat="49.75702" lon="0.45125">
        <ele>106</ele>
        <time>2012-09-15T11:49:07Z</time>
      </trkpt>
      <trkpt lat="49.75689" lon="0.45099">
        <ele>105</ele>
        <time>2012-09-15T11:49:21Z</time>
      </trkpt>
      <trkpt lat="49.75689" lon="0.45096">
        <ele>105</ele>
        <time>2012-09-15T11:49:22Z</time>
      </trkpt>
      <trkpt lat="49.75682" lon="0.45091">
        <ele>105</ele>
        <time>2012-09-15T11:49:26Z</time>
      </trkpt>
      <trkpt lat="49.75678" lon="0.45091">
        <ele>105</ele>
        <time>2012-09-15T11:49:28Z</time>
      </trkpt>
      <trkpt lat="49.75673" lon="0.45089">
        <ele>107</ele>
        <time>2012-09-15T11:49:39Z</time>
      </trkpt>
      <trkpt lat="49.75673" lon="0.45089">
        <ele>107</ele>
        <time>2012-09-15T11:49:56Z</time>
      </trkpt>
    </trkseg>
  </trk>
</gpx>